UAE192 LPPT-OMDB
Flight info
| Callsign | UAE192 |
|---|---|
| Flight time | 7h 20m |
| Altitude | 34000 |
| Route | ORVED DCT RODAP DCT RAKOD DCT UREDI DCT NVS/N0483F350 DCT NANDO/N0485F340 T257 RETBA/N0483F350 DCT MOPIR DCT LASPO DCT LUXUR UM134 ANB UG6 DIMAO UL874 OMENI DCT SUDIK DCT BONAR/N0485F370 M980 LOSUL M855 MMA P751 DASUM Y234 FYM M872 BDB Y214 SIKNU/N0488F390 Y214 RAPMA DCT KUVSO DCT KATIT DCT PEKEM M628 RIGIL G783 ELUDA/N0503F350 G783 ASPED Q308 KIPOK Q568 IMPED |
| Aircraft | B77W/H-SDE1E2E3FGHIJ2J3J4J5M1RWXY/LB1D1 |
Departure
| Time | 2026-04-26 04:37 |
|---|---|
| Airport | Lisbon Humberto Delgado Airport (LPPT) |
Arrival
| Time | 2026-04-26 11:57 |
|---|---|
| Airport | Dubai International Airport (OMDB) |
| Time | Latitude | Longitude | Altitude | Speed | Heading |
|---|---|---|---|---|---|
| 2026-04-26 04:04 | 38.77608 | -9.13203 | 342 ft | 0 kts | 78° |
| 2026-04-26 04:25 | 38.77605 | -9.13224 | 342 ft | 4 kts | 78° |
| 2026-04-26 04:25 | 38.77600 | -9.13257 | 346 ft | 3 kts | 78° |
| 2026-04-26 04:25 | 38.77596 | -9.13285 | 352 ft | 4 kts | 96° |
| 2026-04-26 04:26 | 38.77605 | -9.13313 | 342 ft | 4 kts | 148° |
| 2026-04-26 04:26 | 38.77628 | -9.13321 | 351 ft | 4 kts | 179° |
| 2026-04-26 04:26 | 38.77654 | -9.13321 | 354 ft | 2 kts | 179° |
| 2026-04-26 04:26 | 38.77656 | -9.13321 | 351 ft | 1 kts | 179° |
| 2026-04-26 04:28 | 38.77651 | -9.13321 | 353 ft | 1 kts | 179° |
| 2026-04-26 04:28 | 38.77637 | -9.13321 | 353 ft | 5 kts | 179° |
| 2026-04-26 04:29 | 38.77568 | -9.13320 | 345 ft | 11 kts | 179° |
| 2026-04-26 04:29 | 38.77515 | -9.13319 | 353 ft | 6 kts | 179° |
| 2026-04-26 04:29 | 38.77456 | -9.13306 | 351 ft | 15 kts | 164° |
| 2026-04-26 04:29 | 38.77349 | -9.13285 | 354 ft | 10 kts | 217° |
| 2026-04-26 04:30 | 38.77320 | -9.13367 | 355 ft | 10 kts | 255° |
| 2026-04-26 04:30 | 38.77304 | -9.13453 | 349 ft | 10 kts | 257° |
| 2026-04-26 04:30 | 38.77297 | -9.13483 | 351 ft | 2 kts | 243° |
| 2026-04-26 04:30 | 38.77264 | -9.13502 | 351 ft | 6 kts | 201° |
| 2026-04-26 04:31 | 38.77229 | -9.13534 | 355 ft | 6 kts | 236° |
| 2026-04-26 04:31 | 38.77213 | -9.13586 | 361 ft | 6 kts | 255° |
| 2026-04-26 04:31 | 38.77203 | -9.13641 | 358 ft | 6 kts | 257° |
| 2026-04-26 04:31 | 38.77193 | -9.13697 | 363 ft | 6 kts | 257° |
| 2026-04-26 04:32 | 38.77183 | -9.13752 | 360 ft | 6 kts | 257° |
| 2026-04-26 04:32 | 38.77174 | -9.13807 | 362 ft | 6 kts | 256° |
| 2026-04-26 04:32 | 38.77158 | -9.13862 | 364 ft | 7 kts | 243° |
| 2026-04-26 04:32 | 38.77113 | -9.13908 | 360 ft | 10 kts | 206° |
| 2026-04-26 04:33 | 38.77036 | -9.13952 | 359 ft | 14 kts | 204° |
| 2026-04-26 04:33 | 38.76928 | -9.14009 | 359 ft | 19 kts | 201° |
| 2026-04-26 04:33 | 38.76793 | -9.14077 | 358 ft | 21 kts | 202° |
| 2026-04-26 04:33 | 38.76674 | -9.14140 | 346 ft | 7 kts | 203° |
| 2026-04-26 04:34 | 38.76627 | -9.14166 | 354 ft | 7 kts | 203° |
| 2026-04-26 04:34 | 38.76581 | -9.14191 | 345 ft | 7 kts | 204° |
| 2026-04-26 04:34 | 38.76543 | -9.14232 | 353 ft | 8 kts | 240° |
| 2026-04-26 04:34 | 38.76541 | -9.14305 | 352 ft | 10 kts | 285° |
| 2026-04-26 04:35 | 38.76585 | -9.14377 | 336 ft | 11 kts | 331° |
| 2026-04-26 04:35 | 38.76658 | -9.14377 | 338 ft | 11 kts | 15° |
| 2026-04-26 04:35 | 38.76669 | -9.14372 | 351 ft | 0 kts | 19° |
| 2026-04-26 04:35 | 38.76685 | -9.14365 | 342 ft | 2 kts | 20° |
| 2026-04-26 04:36 | 38.76823 | -9.14295 | 354 ft | 56 kts | 22° |
| 2026-04-26 04:36 | 38.77405 | -9.13983 | 367 ft | 123 kts | 22° |
| 2026-04-26 04:36 | 38.78370 | -9.13475 | 372 ft | 178 kts | 21° |
| 2026-04-26 04:37 | 38.79574 | -9.12852 | 651 ft | 196 kts | 22° |
| 2026-04-26 04:37 | 38.80875 | -9.12080 | 1138 ft | 209 kts | 24° |
| 2026-04-26 04:37 | 38.82123 | -9.11214 | 2014 ft | 201 kts | 28° |
| 2026-04-26 04:37 | 38.83366 | -9.10272 | 2404 ft | 219 kts | 29° |
| 2026-04-26 04:38 | 38.84751 | -9.09223 | 2593 ft | 244 kts | 31° |
| 2026-04-26 04:38 | 38.86236 | -9.08085 | 3190 ft | 252 kts | 31° |
| 2026-04-26 04:38 | 38.87769 | -9.06910 | 3894 ft | 259 kts | 31° |
| 2026-04-26 04:38 | 38.89285 | -9.05648 | 4609 ft | 260 kts | 43° |
| 2026-04-26 04:39 | 38.90307 | -9.03747 | 5188 ft | 263 kts | 65° |
| 2026-04-26 04:39 | 38.91079 | -9.01589 | 5890 ft | 267 kts | 65° |
| 2026-04-26 04:39 | 38.91874 | -8.99435 | 6685 ft | 268 kts | 65° |
| 2026-04-26 04:39 | 38.92676 | -8.97269 | 7443 ft | 270 kts | 65° |
| 2026-04-26 04:40 | 38.93491 | -8.95071 | 8148 ft | 274 kts | 65° |
| 2026-04-26 04:40 | 38.94312 | -8.92858 | 8862 ft | 276 kts | 65° |
| 2026-04-26 04:40 | 38.95145 | -8.90616 | 9561 ft | 279 kts | 65° |
| 2026-04-26 04:40 | 38.95988 | -8.88347 | 10215 ft | 283 kts | 65° |
| 2026-04-26 04:41 | 38.96862 | -8.85995 | 10508 ft | 303 kts | 64° |
| 2026-04-26 04:41 | 38.97807 | -8.83456 | 10694 ft | 326 kts | 64° |
| 2026-04-26 04:41 | 38.98807 | -8.80774 | 10882 ft | 349 kts | 64° |
| 2026-04-26 04:41 | 38.99883 | -8.77880 | 11252 ft | 366 kts | 65° |
| 2026-04-26 04:42 | 39.00994 | -8.74888 | 11915 ft | 375 kts | 64° |
| 2026-04-26 04:42 | 39.02124 | -8.71841 | 12742 ft | 380 kts | 64° |
| 2026-04-26 04:42 | 39.03265 | -8.68759 | 13647 ft | 383 kts | 65° |
| 2026-04-26 04:42 | 39.04419 | -8.65640 | 14495 ft | 388 kts | 65° |
| 2026-04-26 04:43 | 39.05583 | -8.62489 | 15329 ft | 393 kts | 65° |
| 2026-04-26 04:43 | 39.06765 | -8.59288 | 16071 ft | 399 kts | 65° |
| 2026-04-26 04:43 | 39.07961 | -8.56044 | 16845 ft | 404 kts | 65° |
| 2026-04-26 04:43 | 39.09169 | -8.52763 | 17618 ft | 408 kts | 65° |
| 2026-04-26 04:44 | 39.10387 | -8.49454 | 18366 ft | 412 kts | 65° |
| 2026-04-26 04:44 | 39.11623 | -8.46095 | 19087 ft | 417 kts | 65° |
| 2026-04-26 04:44 | 39.12869 | -8.42702 | 19745 ft | 422 kts | 65° |
| 2026-04-26 04:44 | 39.14129 | -8.39265 | 20418 ft | 427 kts | 65° |
| 2026-04-26 04:45 | 39.15400 | -8.35793 | 21052 ft | 431 kts | 65° |
| 2026-04-26 04:45 | 39.16685 | -8.32280 | 21679 ft | 436 kts | 65° |
| 2026-04-26 04:45 | 39.17987 | -8.28721 | 22298 ft | 440 kts | 65° |
| 2026-04-26 04:45 | 39.19294 | -8.25136 | 22871 ft | 444 kts | 65° |
| 2026-04-26 04:46 | 39.20613 | -8.21511 | 23450 ft | 448 kts | 65° |
| 2026-04-26 04:46 | 39.21947 | -8.17855 | 23994 ft | 453 kts | 65° |
| 2026-04-26 04:46 | 39.23292 | -8.14164 | 24526 ft | 457 kts | 65° |
| 2026-04-26 04:46 | 39.24645 | -8.10438 | 25063 ft | 460 kts | 65° |
| 2026-04-26 04:47 | 39.26007 | -8.06683 | 25613 ft | 463 kts | 65° |
| 2026-04-26 04:47 | 39.27354 | -8.02967 | 26126 ft | 465 kts | 64° |
| 2026-04-26 04:47 | 39.28686 | -7.99076 | 26635 ft | 469 kts | 68° |
| 2026-04-26 04:47 | 39.29838 | -7.95185 | 27118 ft | 471 kts | 69° |
| 2026-04-26 04:48 | 39.32049 | -7.87175 | 28029 ft | 476 kts | 69° |
| 2026-04-26 04:48 | 39.33174 | -7.83139 | 28444 ft | 479 kts | 69° |
| 2026-04-26 04:48 | 39.34323 | -7.79088 | 28831 ft | 482 kts | 69° |
| 2026-04-26 04:49 | 39.35486 | -7.75021 | 29203 ft | 484 kts | 69° |
| 2026-04-26 04:49 | 39.36662 | -7.70935 | 29554 ft | 486 kts | 68° |
| 2026-04-26 04:49 | 39.37836 | -7.66839 | 29890 ft | 488 kts | 68° |
| 2026-04-26 04:49 | 39.39118 | -7.62769 | 30206 ft | 488 kts | 63° |
| 2026-04-26 04:50 | 39.40681 | -7.58875 | 30569 ft | 487 kts | 59° |
| 2026-04-26 04:50 | 39.42374 | -7.55087 | 30998 ft | 486 kts | 58° |
| 2026-04-26 04:50 | 39.44096 | -7.51331 | 31425 ft | 485 kts | 58° |
| 2026-04-26 04:50 | 39.45798 | -7.47570 | 31823 ft | 484 kts | 59° |
| 2026-04-26 04:51 | 39.47462 | -7.43800 | 32221 ft | 483 kts | 59° |
| 2026-04-26 04:51 | 39.49103 | -7.40004 | 32583 ft | 482 kts | 59° |
| 2026-04-26 04:51 | 39.50724 | -7.36209 | 32943 ft | 481 kts | 59° |
| 2026-04-26 04:51 | 39.52338 | -7.32407 | 33282 ft | 481 kts | 60° |
| 2026-04-26 04:52 | 39.53944 | -7.28614 | 33597 ft | 480 kts | 60° |
| 2026-04-26 04:52 | 39.55549 | -7.24826 | 33908 ft | 480 kts | 59° |
| 2026-04-26 04:52 | 39.57151 | -7.21045 | 34221 ft | 479 kts | 60° |
| 2026-04-26 04:52 | 39.58759 | -7.17249 | 34507 ft | 479 kts | 60° |
| 2026-04-26 04:53 | 39.60361 | -7.13464 | 34781 ft | 479 kts | 60° |
| 2026-04-26 04:53 | 39.61942 | -7.09723 | 35002 ft | 480 kts | 60° |
| 2026-04-26 04:53 | 39.64932 | -7.01918 | 35071 ft | 484 kts | 64° |
| 2026-04-26 04:54 | 39.67614 | -6.93945 | 35073 ft | 479 kts | 65° |
| 2026-04-26 04:54 | 39.70276 | -6.86033 | 35096 ft | 478 kts | 65° |
| 2026-04-26 04:55 | 39.72960 | -6.78118 | 35098 ft | 479 kts | 65° |
| 2026-04-26 04:55 | 39.75644 | -6.70187 | 35084 ft | 480 kts | 65° |
| 2026-04-26 04:56 | 39.78329 | -6.62228 | 35097 ft | 481 kts | 65° |
| 2026-04-26 04:56 | 39.81008 | -6.54245 | 35103 ft | 481 kts | 65° |
| 2026-04-26 04:57 | 39.83682 | -6.46254 | 35102 ft | 482 kts | 65° |
| 2026-04-26 04:57 | 39.86295 | -6.38269 | 35107 ft | 483 kts | 69° |
| 2026-04-26 04:58 | 39.88391 | -6.29968 | 35118 ft | 483 kts | 72° |
| 2026-04-26 04:58 | 39.90407 | -6.21610 | 35112 ft | 484 kts | 72° |
| 2026-04-26 04:59 | 39.92439 | -6.13258 | 35119 ft | 484 kts | 71° |
| 2026-04-26 04:59 | 39.94482 | -6.04908 | 35120 ft | 484 kts | 71° |
| 2026-04-26 05:00 | 39.96528 | -5.96543 | 35121 ft | 484 kts | 71° |
| 2026-04-26 05:00 | 39.98566 | -5.88183 | 35128 ft | 484 kts | 71° |
| 2026-04-26 05:01 | 40.00597 | -5.79814 | 35131 ft | 484 kts | 72° |
| 2026-04-26 05:01 | 40.02619 | -5.71450 | 35129 ft | 483 kts | 72° |
| 2026-04-26 05:02 | 40.04638 | -5.63079 | 35130 ft | 484 kts | 72° |
| 2026-04-26 05:02 | 40.06637 | -5.54762 | 35135 ft | 483 kts | 72° |
| 2026-04-26 05:03 | 40.08639 | -5.46398 | 35141 ft | 482 kts | 72° |
| 2026-04-26 05:03 | 40.10629 | -5.38040 | 35137 ft | 482 kts | 72° |
| 2026-04-26 05:04 | 40.12618 | -5.29663 | 35139 ft | 482 kts | 72° |
| 2026-04-26 05:04 | 40.14597 | -5.21305 | 35139 ft | 482 kts | 72° |
| 2026-04-26 05:05 | 40.16570 | -5.12945 | 35139 ft | 481 kts | 72° |
| 2026-04-26 05:05 | 40.18533 | -5.04593 | 35141 ft | 480 kts | 72° |
| 2026-04-26 05:06 | 40.20484 | -4.96253 | 35140 ft | 479 kts | 72° |
| 2026-04-26 05:06 | 40.22429 | -4.87921 | 35142 ft | 478 kts | 72° |
| 2026-04-26 05:07 | 40.24352 | -4.79645 | 35136 ft | 478 kts | 72° |
| 2026-04-26 05:07 | 40.26280 | -4.71321 | 35136 ft | 478 kts | 72° |
| 2026-04-26 05:08 | 40.28201 | -4.62993 | 35140 ft | 478 kts | 72° |
| 2026-04-26 05:08 | 40.30120 | -4.54654 | 35143 ft | 478 kts | 73° |
| 2026-04-26 05:09 | 40.32031 | -4.46307 | 35133 ft | 478 kts | 73° |
| 2026-04-26 05:09 | 40.33935 | -4.37959 | 35128 ft | 478 kts | 73° |
| 2026-04-26 05:10 | 40.35775 | -4.29590 | 35124 ft | 478 kts | 78° |
| 2026-04-26 05:10 | 40.36128 | -4.20919 | 35136 ft | 477 kts | 95° |
| 2026-04-26 05:11 | 40.34842 | -4.12410 | 35136 ft | 476 kts | 103° |
| 2026-04-26 05:11 | 40.33284 | -4.03962 | 35132 ft | 477 kts | 103° |
| 2026-04-26 05:12 | 40.32011 | -3.96929 | 35130 ft | 477 kts | 103° |
| 2026-04-26 05:12 | 40.30258 | -3.87075 | 35129 ft | 478 kts | 103° |
| 2026-04-26 05:13 | 40.28757 | -3.78589 | 35131 ft | 478 kts | 102° |
| 2026-04-26 05:13 | 40.27253 | -3.70114 | 35130 ft | 478 kts | 103° |
| 2026-04-26 05:14 | 40.25985 | -3.63011 | 35130 ft | 478 kts | 103° |
| 2026-04-26 05:14 | 40.24471 | -3.54592 | 35127 ft | 478 kts | 103° |
| 2026-04-26 05:15 | 40.22943 | -3.46126 | 35127 ft | 478 kts | 103° |
| 2026-04-26 05:15 | 40.21407 | -3.37650 | 35135 ft | 479 kts | 103° |
| 2026-04-26 05:16 | 40.19865 | -3.29171 | 35132 ft | 479 kts | 103° |
| 2026-04-26 05:16 | 40.18316 | -3.20696 | 35124 ft | 480 kts | 103° |
| 2026-04-26 05:17 | 40.16761 | -3.12213 | 35135 ft | 480 kts | 103° |
| 2026-04-26 05:17 | 40.15194 | -3.03726 | 35144 ft | 480 kts | 103° |
| 2026-04-26 05:18 | 40.13624 | -2.95250 | 35138 ft | 480 kts | 103° |
| 2026-04-26 05:18 | 40.12045 | -2.86762 | 35144 ft | 481 kts | 103° |
| 2026-04-26 05:19 | 40.10458 | -2.78275 | 35138 ft | 481 kts | 103° |
| 2026-04-26 05:19 | 40.08868 | -2.69806 | 35138 ft | 480 kts | 103° |
| 2026-04-26 05:20 | 40.07289 | -2.61429 | 35139 ft | 471 kts | 103° |
| 2026-04-26 05:20 | 40.05704 | -2.53063 | 35161 ft | 480 kts | 103° |
| 2026-04-26 05:21 | 40.04104 | -2.44633 | 35151 ft | 482 kts | 103° |
| 2026-04-26 05:21 | 40.02484 | -2.36152 | 35153 ft | 480 kts | 103° |
| 2026-04-26 05:22 | 40.00866 | -2.27705 | 35154 ft | 479 kts | 103° |
| 2026-04-26 05:22 | 39.99146 | -2.19327 | 35155 ft | 478 kts | 108° |
| 2026-04-26 05:23 | 39.96444 | -2.11443 | 35157 ft | 477 kts | 118° |
| 2026-04-26 05:23 | 39.93188 | -2.03915 | 35163 ft | 476 kts | 118° |
| 2026-04-26 05:24 | 39.89945 | -1.96377 | 35165 ft | 477 kts | 118° |
| 2026-04-26 05:24 | 39.86725 | -1.88825 | 35170 ft | 477 kts | 118° |
| 2026-04-26 05:25 | 39.83501 | -1.81260 | 35167 ft | 478 kts | 118° |
| 2026-04-26 05:25 | 39.80267 | -1.73695 | 35159 ft | 479 kts | 118° |
| 2026-04-26 05:26 | 39.77043 | -1.66177 | 35157 ft | 479 kts | 118° |
| 2026-04-26 05:26 | 39.73796 | -1.58610 | 35156 ft | 479 kts | 118° |
| 2026-04-26 05:27 | 39.70543 | -1.51060 | 35159 ft | 479 kts | 118° |
| 2026-04-26 05:27 | 39.67283 | -1.43512 | 35157 ft | 480 kts | 118° |
| 2026-04-26 05:28 | 39.64013 | -1.35961 | 35157 ft | 480 kts | 118° |
| 2026-04-26 05:28 | 39.60740 | -1.28418 | 35156 ft | 480 kts | 118° |
| 2026-04-26 05:29 | 39.57467 | -1.20890 | 35136 ft | 480 kts | 118° |
| 2026-04-26 05:29 | 39.54185 | -1.13360 | 35149 ft | 479 kts | 118° |
| 2026-04-26 05:30 | 39.50915 | -1.05846 | 35135 ft | 479 kts | 118° |
| 2026-04-26 05:30 | 39.47647 | -0.98340 | 35139 ft | 478 kts | 118° |
| 2026-04-26 05:31 | 39.44372 | -0.90839 | 35141 ft | 479 kts | 118° |
| 2026-04-26 05:31 | 39.41097 | -0.83340 | 35141 ft | 479 kts | 118° |
| 2026-04-26 05:32 | 39.37799 | -0.75851 | 35142 ft | 479 kts | 119° |
| 2026-04-26 05:32 | 39.34514 | -0.68422 | 35132 ft | 480 kts | 119° |
| 2026-04-26 05:33 | 39.31199 | -0.60934 | 35126 ft | 480 kts | 119° |
| 2026-04-26 05:33 | 39.28072 | -0.53333 | 35129 ft | 479 kts | 112° |
| 2026-04-26 05:34 | 39.25915 | -0.45211 | 35137 ft | 478 kts | 107° |
| 2026-04-26 05:34 | 39.23920 | -0.37024 | 35127 ft | 478 kts | 107° |
| 2026-04-26 05:35 | 39.21897 | -0.28855 | 35126 ft | 478 kts | 107° |
| 2026-04-26 05:35 | 39.19849 | -0.20695 | 35131 ft | 478 kts | 107° |
| 2026-04-26 05:36 | 39.17783 | -0.12550 | 35129 ft | 478 kts | 107° |
| 2026-04-26 05:36 | 39.15712 | -0.04393 | 35127 ft | 479 kts | 107° |
| 2026-04-26 05:37 | 39.13649 | 0.03712 | 35121 ft | 479 kts | 107° |
| 2026-04-26 05:37 | 39.11570 | 0.11849 | 35118 ft | 478 kts | 108° |
| 2026-04-26 05:38 | 39.09488 | 0.19973 | 35120 ft | 477 kts | 108° |
| 2026-04-26 05:38 | 39.07403 | 0.28092 | 35121 ft | 477 kts | 108° |
| 2026-04-26 05:39 | 39.05313 | 0.36183 | 35119 ft | 477 kts | 108° |
| 2026-04-26 05:39 | 39.03217 | 0.44263 | 35115 ft | 476 kts | 108° |
| 2026-04-26 05:40 | 39.01123 | 0.52335 | 35110 ft | 476 kts | 108° |
| 2026-04-26 05:40 | 38.99023 | 0.60402 | 35112 ft | 475 kts | 108° |
| 2026-04-26 05:41 | 38.96918 | 0.68459 | 35110 ft | 476 kts | 108° |
| 2026-04-26 05:41 | 38.94806 | 0.76517 | 35112 ft | 476 kts | 108° |
| 2026-04-26 05:42 | 38.92685 | 0.84576 | 35112 ft | 476 kts | 108° |
| 2026-04-26 05:42 | 38.90558 | 0.92639 | 35108 ft | 477 kts | 108° |
| 2026-04-26 05:43 | 38.88435 | 1.00649 | 35109 ft | 477 kts | 108° |
| 2026-04-26 05:43 | 38.86292 | 1.08716 | 35101 ft | 478 kts | 108° |
| 2026-04-26 05:44 | 38.84146 | 1.16775 | 35102 ft | 478 kts | 108° |
| 2026-04-26 05:44 | 38.81992 | 1.24840 | 35101 ft | 478 kts | 108° |
| 2026-04-26 05:45 | 38.79831 | 1.32901 | 35099 ft | 478 kts | 109° |
| 2026-04-26 05:45 | 38.77665 | 1.40951 | 35102 ft | 478 kts | 108° |
| 2026-04-26 05:46 | 38.75491 | 1.49002 | 35102 ft | 478 kts | 109° |
| 2026-04-26 05:46 | 38.73315 | 1.57043 | 35105 ft | 478 kts | 109° |
| 2026-04-26 05:47 | 38.71133 | 1.65075 | 35100 ft | 478 kts | 109° |
| 2026-04-26 05:47 | 38.68947 | 1.73105 | 35103 ft | 477 kts | 109° |
| 2026-04-26 05:48 | 38.66760 | 1.81115 | 35114 ft | 477 kts | 109° |
| 2026-04-26 05:48 | 38.64566 | 1.89122 | 35110 ft | 477 kts | 109° |
| 2026-04-26 05:49 | 38.61264 | 2.01122 | 35110 ft | 477 kts | 109° |
| 2026-04-26 05:50 | 38.59071 | 2.09067 | 35108 ft | 476 kts | 109° |
| 2026-04-26 05:50 | 38.56857 | 2.17046 | 35112 ft | 476 kts | 109° |
| 2026-04-26 05:51 | 38.54643 | 2.25020 | 35124 ft | 477 kts | 109° |
| 2026-04-26 05:51 | 38.52417 | 2.33016 | 35123 ft | 478 kts | 109° |
| 2026-04-26 05:52 | 38.50178 | 2.41022 | 35122 ft | 479 kts | 109° |
| 2026-04-26 05:52 | 38.47929 | 2.49032 | 35121 ft | 480 kts | 109° |
| 2026-04-26 05:53 | 38.45675 | 2.57047 | 35121 ft | 480 kts | 109° |
| 2026-04-26 05:53 | 38.43411 | 2.65072 | 35119 ft | 481 kts | 109° |
| 2026-04-26 05:54 | 38.41157 | 2.73035 | 35120 ft | 481 kts | 109° |
| 2026-04-26 05:54 | 38.38883 | 2.81050 | 35133 ft | 481 kts | 109° |
| 2026-04-26 05:55 | 38.36602 | 2.89056 | 35138 ft | 481 kts | 109° |
| 2026-04-26 05:55 | 38.34314 | 2.97069 | 35128 ft | 482 kts | 109° |
| 2026-04-26 05:56 | 38.32015 | 3.05097 | 35131 ft | 482 kts | 109° |
| 2026-04-26 05:56 | 38.29710 | 3.13118 | 35127 ft | 483 kts | 109° |
| 2026-04-26 05:57 | 38.27397 | 3.21152 | 35132 ft | 484 kts | 109° |
| 2026-04-26 05:57 | 38.25071 | 3.29199 | 35124 ft | 485 kts | 109° |
| 2026-04-26 05:58 | 38.22736 | 3.37251 | 35121 ft | 486 kts | 109° |
| 2026-04-26 05:58 | 38.20377 | 3.45298 | 35121 ft | 486 kts | 110° |
| 2026-04-26 05:59 | 38.17894 | 3.53302 | 35121 ft | 487 kts | 111° |
| 2026-04-26 05:59 | 38.15371 | 3.61300 | 35122 ft | 488 kts | 111° |
| 2026-04-26 06:00 | 38.12854 | 3.69309 | 35122 ft | 488 kts | 111° |
| 2026-04-26 06:00 | 38.10356 | 3.77267 | 35115 ft | 489 kts | 111° |
| 2026-04-26 06:01 | 38.07834 | 3.85286 | 35111 ft | 490 kts | 111° |
| 2026-04-26 06:01 | 38.05307 | 3.93311 | 35111 ft | 489 kts | 111° |
| 2026-04-26 06:02 | 38.02778 | 4.01325 | 35109 ft | 489 kts | 111° |
| 2026-04-26 06:02 | 38.00240 | 4.09328 | 35112 ft | 489 kts | 111° |
| 2026-04-26 06:03 | 37.97697 | 4.17326 | 35109 ft | 489 kts | 111° |
| 2026-04-26 06:03 | 37.95153 | 4.25306 | 35103 ft | 489 kts | 111° |
| 2026-04-26 06:04 | 37.93034 | 4.31943 | 35096 ft | 489 kts | 111° |
| 2026-04-26 06:04 | 37.90043 | 4.41265 | 35096 ft | 489 kts | 111° |
| 2026-04-26 06:05 | 37.87913 | 4.47901 | 35100 ft | 489 kts | 111° |
| 2026-04-26 06:05 | 37.85343 | 4.55878 | 35079 ft | 490 kts | 111° |
| 2026-04-26 06:06 | 37.82763 | 4.63857 | 35095 ft | 490 kts | 112° |
| 2026-04-26 06:06 | 37.80172 | 4.71856 | 35097 ft | 492 kts | 112° |
| 2026-04-26 06:07 | 37.77572 | 4.79864 | 35088 ft | 493 kts | 113° |
| 2026-04-26 06:07 | 37.74976 | 4.87832 | 35095 ft | 495 kts | 113° |
| 2026-04-26 06:08 | 37.72345 | 4.95888 | 35099 ft | 496 kts | 113° |
| 2026-04-26 06:08 | 37.69746 | 5.03962 | 35089 ft | 496 kts | 112° |
| 2026-04-26 06:09 | 37.67320 | 5.12140 | 35083 ft | 497 kts | 111° |
| 2026-04-26 06:09 | 37.64920 | 5.20343 | 35079 ft | 498 kts | 111° |
| 2026-04-26 06:10 | 37.62493 | 5.28532 | 35089 ft | 498 kts | 111° |
| 2026-04-26 06:10 | 37.60041 | 5.36710 | 35082 ft | 498 kts | 111° |
| 2026-04-26 06:11 | 37.57601 | 5.44810 | 35089 ft | 497 kts | 111° |
| 2026-04-26 06:11 | 37.55129 | 5.52998 | 35080 ft | 496 kts | 111° |
| 2026-04-26 06:12 | 37.52688 | 5.61063 | 35077 ft | 495 kts | 111° |
| 2026-04-26 06:12 | 37.50227 | 5.69168 | 35084 ft | 495 kts | 111° |
| 2026-04-26 06:13 | 37.47760 | 5.77266 | 35084 ft | 495 kts | 111° |
| 2026-04-26 06:13 | 37.45289 | 5.85356 | 35085 ft | 495 kts | 112° |
| 2026-04-26 06:14 | 37.42819 | 5.93427 | 35079 ft | 495 kts | 112° |
| 2026-04-26 06:14 | 37.40340 | 6.01507 | 35096 ft | 495 kts | 112° |
| 2026-04-26 06:15 | 37.37849 | 6.09590 | 35082 ft | 496 kts | 112° |
| 2026-04-26 06:15 | 37.35349 | 6.17680 | 35104 ft | 496 kts | 112° |
| 2026-04-26 06:16 | 37.32843 | 6.25770 | 35120 ft | 497 kts | 112° |
| 2026-04-26 06:16 | 37.30325 | 6.33875 | 35121 ft | 499 kts | 112° |
| 2026-04-26 06:17 | 37.27795 | 6.41998 | 35121 ft | 500 kts | 112° |
| 2026-04-26 06:17 | 37.25254 | 6.50127 | 35122 ft | 501 kts | 112° |
| 2026-04-26 06:18 | 37.22705 | 6.58271 | 35118 ft | 502 kts | 112° |
| 2026-04-26 06:18 | 37.20141 | 6.66429 | 35118 ft | 503 kts | 112° |
| 2026-04-26 06:19 | 37.17570 | 6.74586 | 35109 ft | 504 kts | 112° |
| 2026-04-26 06:19 | 37.15004 | 6.82702 | 35125 ft | 504 kts | 112° |
| 2026-04-26 06:20 | 37.12418 | 6.90865 | 35130 ft | 504 kts | 112° |
| 2026-04-26 06:20 | 37.09826 | 6.99024 | 35132 ft | 504 kts | 112° |
| 2026-04-26 06:21 | 37.07228 | 7.07174 | 35127 ft | 504 kts | 112° |
| 2026-04-26 06:21 | 37.04620 | 7.15326 | 35127 ft | 504 kts | 112° |
| 2026-04-26 06:22 | 37.02003 | 7.23488 | 35119 ft | 504 kts | 112° |
| 2026-04-26 06:22 | 36.99388 | 7.31629 | 35122 ft | 504 kts | 112° |
| 2026-04-26 06:23 | 36.96784 | 7.39710 | 35115 ft | 504 kts | 112° |
| 2026-04-26 06:23 | 36.94154 | 7.47840 | 35109 ft | 504 kts | 112° |
| 2026-04-26 06:24 | 36.91528 | 7.55945 | 35111 ft | 504 kts | 112° |
| 2026-04-26 06:24 | 36.88892 | 7.64063 | 35113 ft | 504 kts | 112° |
| 2026-04-26 06:25 | 36.86249 | 7.72173 | 35098 ft | 504 kts | 113° |
| 2026-04-26 06:25 | 36.83263 | 7.80062 | 35100 ft | 502 kts | 123° |
| 2026-04-26 06:26 | 36.79104 | 7.87015 | 35100 ft | 499 kts | 135° |
| 2026-04-26 06:26 | 36.74271 | 7.93225 | 35106 ft | 499 kts | 136° |
| 2026-04-26 06:27 | 36.69415 | 7.99413 | 35107 ft | 500 kts | 136° |
| 2026-04-26 06:27 | 36.64575 | 8.05659 | 35110 ft | 501 kts | 135° |
| 2026-04-26 06:28 | 36.59772 | 8.11880 | 35115 ft | 502 kts | 135° |
| 2026-04-26 06:28 | 36.54932 | 8.18139 | 35116 ft | 502 kts | 135° |
| 2026-04-26 06:29 | 36.50074 | 8.24399 | 35125 ft | 503 kts | 135° |
| 2026-04-26 06:29 | 36.45213 | 8.30652 | 35118 ft | 503 kts | 135° |
| 2026-04-26 06:30 | 36.41085 | 8.37616 | 35132 ft | 504 kts | 117° |
| 2026-04-26 06:30 | 36.38862 | 8.45843 | 35136 ft | 505 kts | 101° |
| 2026-04-26 06:31 | 36.37598 | 8.54427 | 35137 ft | 506 kts | 100° |
| 2026-04-26 06:31 | 36.36316 | 8.63023 | 35129 ft | 507 kts | 101° |
| 2026-04-26 06:32 | 36.34965 | 8.71602 | 35129 ft | 507 kts | 101° |
| 2026-04-26 06:32 | 36.33585 | 8.80161 | 35124 ft | 506 kts | 101° |
| 2026-04-26 06:33 | 36.32200 | 8.88712 | 35131 ft | 505 kts | 101° |
| 2026-04-26 06:33 | 36.30817 | 8.97245 | 35131 ft | 504 kts | 101° |
| 2026-04-26 06:34 | 36.29430 | 9.05761 | 35131 ft | 503 kts | 101° |
| 2026-04-26 06:34 | 36.28042 | 9.14243 | 35128 ft | 502 kts | 101° |
| 2026-04-26 06:35 | 36.26657 | 9.22669 | 35137 ft | 501 kts | 101° |
| 2026-04-26 06:35 | 36.25262 | 9.31129 | 35136 ft | 501 kts | 101° |
| 2026-04-26 06:36 | 36.24156 | 9.39635 | 35142 ft | 500 kts | 98° |
| 2026-04-26 06:36 | 36.23193 | 9.48170 | 35143 ft | 500 kts | 97° |
| 2026-04-26 06:37 | 36.22214 | 9.56702 | 35138 ft | 501 kts | 98° |
| 2026-04-26 06:37 | 36.21207 | 9.65232 | 35140 ft | 501 kts | 98° |
| 2026-04-26 06:38 | 36.20186 | 9.73766 | 35139 ft | 501 kts | 98° |
| 2026-04-26 06:38 | 36.19162 | 9.82291 | 35148 ft | 501 kts | 98° |
| 2026-04-26 06:39 | 36.18127 | 9.90836 | 35148 ft | 501 kts | 98° |
| 2026-04-26 06:39 | 36.17093 | 9.99363 | 35133 ft | 501 kts | 98° |
| 2026-04-26 06:40 | 36.16053 | 10.07892 | 35126 ft | 501 kts | 98° |
| 2026-04-26 06:40 | 36.14769 | 10.16302 | 35132 ft | 501 kts | 106° |
| 2026-04-26 06:41 | 36.12555 | 10.24451 | 35147 ft | 500 kts | 109° |
| 2026-04-26 06:41 | 36.10319 | 10.32600 | 35133 ft | 501 kts | 108° |
| 2026-04-26 06:42 | 36.08213 | 10.40821 | 35126 ft | 501 kts | 103° |
| 2026-04-26 06:42 | 36.07134 | 10.49314 | 35136 ft | 501 kts | 92° |
| 2026-04-26 06:43 | 36.06924 | 10.57916 | 35136 ft | 501 kts | 91° |
| 2026-04-26 06:43 | 36.06734 | 10.66464 | 35131 ft | 501 kts | 91° |
| 2026-04-26 06:44 | 36.06498 | 10.75071 | 35141 ft | 501 kts | 91° |
| 2026-04-26 06:44 | 36.06239 | 10.83679 | 35141 ft | 501 kts | 91° |
| 2026-04-26 06:45 | 36.05969 | 10.92276 | 35149 ft | 501 kts | 91° |
| 2026-04-26 06:45 | 36.05695 | 11.00887 | 35146 ft | 501 kts | 91° |
| 2026-04-26 06:46 | 36.05417 | 11.09488 | 35157 ft | 501 kts | 91° |
| 2026-04-26 06:46 | 36.05133 | 11.18104 | 35161 ft | 502 kts | 91° |
| 2026-04-26 06:47 | 36.04846 | 11.26661 | 35169 ft | 502 kts | 92° |
| 2026-04-26 06:47 | 36.04552 | 11.35290 | 35164 ft | 502 kts | 92° |
| 2026-04-26 06:48 | 36.04288 | 11.43919 | 35167 ft | 503 kts | 91° |
| 2026-04-26 06:48 | 36.03676 | 11.52517 | 35158 ft | 504 kts | 101° |
| 2026-04-26 06:49 | 36.02032 | 11.60928 | 35172 ft | 503 kts | 104° |
| 2026-04-26 06:49 | 36.00308 | 11.69317 | 35170 ft | 503 kts | 104° |
| 2026-04-26 06:50 | 35.98625 | 11.77653 | 35176 ft | 504 kts | 104° |
| 2026-04-26 06:50 | 35.96944 | 11.86066 | 35180 ft | 505 kts | 104° |
| 2026-04-26 06:51 | 35.95263 | 11.94484 | 35176 ft | 505 kts | 104° |
| 2026-04-26 06:51 | 35.92730 | 12.07108 | 35175 ft | 505 kts | 104° |
| 2026-04-26 06:52 | 35.91029 | 12.15519 | 35177 ft | 505 kts | 104° |
| 2026-04-26 06:52 | 35.89326 | 12.23925 | 35176 ft | 505 kts | 104° |
| 2026-04-26 06:53 | 35.87614 | 12.32327 | 35182 ft | 505 kts | 104° |
| 2026-04-26 06:53 | 35.85892 | 12.40728 | 35184 ft | 505 kts | 104° |
| 2026-04-26 06:54 | 35.84169 | 12.49122 | 35183 ft | 505 kts | 104° |
| 2026-04-26 06:54 | 35.82441 | 12.57523 | 35187 ft | 506 kts | 104° |
| 2026-04-26 06:55 | 35.80713 | 12.65882 | 35184 ft | 507 kts | 104° |
| 2026-04-26 06:55 | 35.78966 | 12.74303 | 35185 ft | 509 kts | 104° |
| 2026-04-26 06:56 | 35.77205 | 12.82753 | 35184 ft | 510 kts | 104° |
| 2026-04-26 06:56 | 35.75433 | 12.91227 | 35184 ft | 511 kts | 104° |
| 2026-04-26 06:57 | 35.73654 | 12.99704 | 35185 ft | 512 kts | 104° |
| 2026-04-26 06:57 | 35.71866 | 13.08190 | 35185 ft | 513 kts | 104° |
| 2026-04-26 06:58 | 35.70070 | 13.16678 | 35185 ft | 513 kts | 104° |
| 2026-04-26 06:58 | 35.68266 | 13.25169 | 35181 ft | 513 kts | 104° |
| 2026-04-26 06:59 | 35.66765 | 13.32212 | 35172 ft | 512 kts | 104° |
| 2026-04-26 06:59 | 35.64652 | 13.42092 | 35174 ft | 510 kts | 104° |
| 2026-04-26 07:00 | 35.63147 | 13.49103 | 35174 ft | 509 kts | 104° |
| 2026-04-26 07:00 | 35.61339 | 13.57510 | 35176 ft | 509 kts | 104° |
| 2026-04-26 07:01 | 35.59525 | 13.65902 | 35174 ft | 508 kts | 104° |
| 2026-04-26 07:01 | 35.57707 | 13.74278 | 35167 ft | 507 kts | 104° |
| 2026-04-26 07:02 | 35.55884 | 13.82641 | 35164 ft | 507 kts | 104° |
| 2026-04-26 07:02 | 35.54060 | 13.90987 | 35166 ft | 506 kts | 104° |
| 2026-04-26 07:03 | 35.52227 | 13.99337 | 35166 ft | 506 kts | 104° |
| 2026-04-26 07:03 | 35.50393 | 14.07686 | 35169 ft | 506 kts | 104° |
| 2026-04-26 07:04 | 35.48552 | 14.16024 | 35159 ft | 506 kts | 104° |
| 2026-04-26 07:04 | 35.46701 | 14.24366 | 35158 ft | 507 kts | 104° |
| 2026-04-26 07:05 | 35.44857 | 14.32651 | 35155 ft | 507 kts | 104° |
| 2026-04-26 07:05 | 35.42994 | 14.41005 | 35158 ft | 507 kts | 104° |
| 2026-04-26 07:06 | 35.41125 | 14.49351 | 35158 ft | 508 kts | 105° |
| 2026-04-26 07:06 | 35.39279 | 14.57710 | 35157 ft | 508 kts | 104° |
| 2026-04-26 07:07 | 35.37469 | 14.66091 | 35158 ft | 509 kts | 104° |
| 2026-04-26 07:07 | 35.35656 | 14.74476 | 35157 ft | 509 kts | 104° |
| 2026-04-26 07:08 | 35.33829 | 14.82861 | 35156 ft | 509 kts | 104° |
| 2026-04-26 07:08 | 35.31992 | 14.91248 | 35160 ft | 510 kts | 104° |
| 2026-04-26 07:09 | 35.30147 | 14.99627 | 35156 ft | 509 kts | 104° |
| 2026-04-26 07:09 | 35.28309 | 15.07937 | 35156 ft | 508 kts | 104° |
| 2026-04-26 07:11 | 35.23681 | 15.28778 | 35155 ft | 507 kts | 104° |
| 2026-04-26 07:11 | 35.21823 | 15.37086 | 35159 ft | 506 kts | 105° |
| 2026-04-26 07:12 | 35.19959 | 15.45385 | 35156 ft | 506 kts | 105° |
| 2026-04-26 07:12 | 35.18094 | 15.53674 | 35160 ft | 505 kts | 105° |
| 2026-04-26 07:13 | 35.16226 | 15.61945 | 35155 ft | 505 kts | 105° |
| 2026-04-26 07:13 | 35.14352 | 15.70208 | 35157 ft | 505 kts | 105° |
| 2026-04-26 07:14 | 35.12487 | 15.78410 | 35159 ft | 505 kts | 105° |
| 2026-04-26 07:14 | 35.10589 | 15.86717 | 35158 ft | 505 kts | 105° |
| 2026-04-26 07:15 | 35.08711 | 15.94915 | 35157 ft | 505 kts | 105° |
| 2026-04-26 07:15 | 35.06815 | 16.03170 | 35160 ft | 505 kts | 105° |
| 2026-04-26 07:16 | 35.04912 | 16.11416 | 35157 ft | 504 kts | 105° |
| 2026-04-26 07:16 | 35.03009 | 16.19644 | 35152 ft | 503 kts | 105° |
| 2026-04-26 07:17 | 35.01104 | 16.27860 | 35159 ft | 502 kts | 105° |
| 2026-04-26 07:17 | 34.99195 | 16.36054 | 35160 ft | 502 kts | 105° |
| 2026-04-26 07:18 | 34.97279 | 16.44242 | 35156 ft | 502 kts | 105° |
| 2026-04-26 07:18 | 34.95358 | 16.52430 | 35153 ft | 503 kts | 105° |
| 2026-04-26 07:19 | 34.93429 | 16.60626 | 35150 ft | 503 kts | 105° |
| 2026-04-26 07:19 | 34.91504 | 16.68778 | 35149 ft | 504 kts | 105° |
| 2026-04-26 07:20 | 34.89561 | 16.76982 | 35148 ft | 504 kts | 105° |
| 2026-04-26 07:20 | 34.87609 | 16.85194 | 35149 ft | 504 kts | 105° |
| 2026-04-26 07:21 | 34.85654 | 16.93390 | 35148 ft | 505 kts | 105° |
| 2026-04-26 07:21 | 34.83691 | 17.01600 | 35150 ft | 505 kts | 105° |
| 2026-04-26 07:22 | 34.81724 | 17.09797 | 35149 ft | 505 kts | 105° |
| 2026-04-26 07:22 | 34.79750 | 17.17992 | 35133 ft | 504 kts | 105° |
| 2026-04-26 07:23 | 34.77769 | 17.26171 | 35140 ft | 504 kts | 105° |
| 2026-04-26 07:23 | 34.75790 | 17.34350 | 35135 ft | 504 kts | 105° |
| 2026-04-26 07:24 | 34.73804 | 17.42529 | 35140 ft | 505 kts | 105° |
| 2026-04-26 07:24 | 34.71808 | 17.50718 | 35146 ft | 505 kts | 105° |
| 2026-04-26 07:25 | 34.69814 | 17.58859 | 35126 ft | 506 kts | 105° |
| 2026-04-26 07:25 | 34.67790 | 17.67099 | 35134 ft | 506 kts | 105° |
| 2026-04-26 07:26 | 34.65787 | 17.75234 | 35134 ft | 506 kts | 105° |
| 2026-04-26 07:26 | 34.63758 | 17.83428 | 35146 ft | 507 kts | 105° |
| 2026-04-26 07:27 | 34.61725 | 17.91640 | 35138 ft | 508 kts | 105° |
| 2026-04-26 07:27 | 34.59687 | 17.99844 | 35141 ft | 508 kts | 105° |
| 2026-04-26 07:28 | 34.57639 | 18.08054 | 35141 ft | 508 kts | 105° |
| 2026-04-26 07:28 | 34.55587 | 18.16256 | 35130 ft | 508 kts | 105° |
| 2026-04-26 07:29 | 34.53539 | 18.24409 | 35127 ft | 508 kts | 105° |
| 2026-04-26 07:29 | 34.51475 | 18.32606 | 35131 ft | 508 kts | 105° |
| 2026-04-26 07:30 | 34.49409 | 18.40788 | 35130 ft | 507 kts | 105° |
| 2026-04-26 07:30 | 34.47336 | 18.48958 | 35130 ft | 507 kts | 105° |
| 2026-04-26 07:31 | 34.45261 | 18.57122 | 35129 ft | 507 kts | 105° |
| 2026-04-26 07:31 | 34.43184 | 18.65271 | 35127 ft | 506 kts | 105° |
| 2026-04-26 07:32 | 34.41102 | 18.73413 | 35119 ft | 506 kts | 105° |
| 2026-04-26 07:32 | 34.39017 | 18.81543 | 35122 ft | 505 kts | 105° |
| 2026-04-26 07:33 | 34.36926 | 18.89660 | 35117 ft | 505 kts | 105° |
| 2026-04-26 07:33 | 34.34831 | 18.97780 | 35121 ft | 505 kts | 105° |
| 2026-04-26 07:34 | 34.32549 | 19.05813 | 35114 ft | 506 kts | 112° |
| 2026-04-26 07:34 | 34.29512 | 19.13437 | 35117 ft | 507 kts | 114° |
| 2026-04-26 07:35 | 34.26392 | 19.21080 | 35112 ft | 507 kts | 114° |
| 2026-04-26 07:35 | 34.23297 | 19.28744 | 35113 ft | 507 kts | 114° |
| 2026-04-26 07:36 | 34.20216 | 19.36421 | 35114 ft | 508 kts | 114° |
| 2026-04-26 07:36 | 34.17125 | 19.44112 | 35110 ft | 509 kts | 114° |
| 2026-04-26 07:37 | 34.14026 | 19.51817 | 35110 ft | 511 kts | 114° |
| 2026-04-26 07:37 | 34.10910 | 19.59538 | 35098 ft | 512 kts | 114° |
| 2026-04-26 07:38 | 34.07780 | 19.67270 | 35099 ft | 513 kts | 114° |
| 2026-04-26 07:38 | 34.04646 | 19.74995 | 35094 ft | 514 kts | 114° |
| 2026-04-26 07:39 | 34.01496 | 19.82741 | 35099 ft | 514 kts | 114° |
| 2026-04-26 07:39 | 33.98342 | 19.90480 | 35077 ft | 515 kts | 114° |
| 2026-04-26 07:40 | 33.95185 | 19.98221 | 35068 ft | 516 kts | 114° |
| 2026-04-26 07:40 | 33.92011 | 20.05966 | 35053 ft | 515 kts | 114° |
| 2026-04-26 07:41 | 33.88838 | 20.13699 | 35042 ft | 515 kts | 114° |
| 2026-04-26 07:41 | 33.85665 | 20.21417 | 35042 ft | 514 kts | 114° |
| 2026-04-26 07:42 | 33.82513 | 20.29067 | 35046 ft | 514 kts | 114° |
| 2026-04-26 07:42 | 33.79332 | 20.36769 | 35052 ft | 514 kts | 115° |
| 2026-04-26 07:43 | 33.76143 | 20.44471 | 35056 ft | 515 kts | 115° |
| 2026-04-26 07:43 | 33.72943 | 20.52185 | 35054 ft | 516 kts | 115° |
| 2026-04-26 07:44 | 33.69730 | 20.59912 | 35065 ft | 518 kts | 115° |
| 2026-04-26 07:44 | 33.66497 | 20.67671 | 35059 ft | 520 kts | 115° |
| 2026-04-26 07:45 | 33.63272 | 20.75390 | 35055 ft | 522 kts | 115° |
| 2026-04-26 07:45 | 33.60010 | 20.83179 | 35058 ft | 523 kts | 115° |
| 2026-04-26 07:46 | 33.56740 | 20.90976 | 35055 ft | 524 kts | 116° |
| 2026-04-26 07:46 | 33.53461 | 20.98779 | 35056 ft | 524 kts | 116° |
| 2026-04-26 07:47 | 33.50171 | 21.06582 | 35055 ft | 525 kts | 116° |
| 2026-04-26 07:47 | 33.46874 | 21.14375 | 35055 ft | 524 kts | 116° |
| 2026-04-26 07:48 | 33.43576 | 21.22156 | 35055 ft | 524 kts | 116° |
| 2026-04-26 07:48 | 33.40272 | 21.29942 | 35056 ft | 524 kts | 116° |
| 2026-04-26 07:49 | 33.36962 | 21.37716 | 35056 ft | 524 kts | 116° |
| 2026-04-26 07:49 | 33.33648 | 21.45483 | 35057 ft | 524 kts | 116° |
| 2026-04-26 07:50 | 33.28670 | 21.57134 | 35055 ft | 524 kts | 116° |
| 2026-04-26 07:50 | 33.25906 | 21.63582 | 35057 ft | 524 kts | 116° |
| 2026-04-26 07:51 | 33.22575 | 21.71338 | 35054 ft | 525 kts | 116° |
| 2026-04-26 07:51 | 33.19239 | 21.79092 | 35057 ft | 525 kts | 116° |
| 2026-04-26 07:52 | 33.15893 | 21.86851 | 35048 ft | 526 kts | 117° |
| 2026-04-26 07:52 | 33.12530 | 21.94623 | 35033 ft | 527 kts | 117° |
| 2026-04-26 07:53 | 33.09179 | 22.02350 | 35027 ft | 528 kts | 117° |
| 2026-04-26 07:53 | 33.05801 | 22.10129 | 35020 ft | 529 kts | 117° |
| 2026-04-26 07:54 | 33.02412 | 22.17920 | 35021 ft | 530 kts | 117° |
| 2026-04-26 07:54 | 32.99011 | 22.25712 | 35014 ft | 531 kts | 118° |
| 2026-04-26 07:55 | 32.95598 | 22.33517 | 35017 ft | 531 kts | 118° |
| 2026-04-26 07:55 | 32.92175 | 22.41333 | 35018 ft | 533 kts | 118° |
| 2026-04-26 07:56 | 32.88740 | 22.49150 | 35018 ft | 533 kts | 118° |
| 2026-04-26 07:56 | 32.85299 | 22.56974 | 35014 ft | 534 kts | 118° |
| 2026-04-26 07:57 | 32.81842 | 22.64811 | 35018 ft | 535 kts | 118° |
| 2026-04-26 07:57 | 32.78384 | 22.72640 | 35018 ft | 535 kts | 118° |
| 2026-04-26 07:58 | 32.74938 | 22.80421 | 35021 ft | 535 kts | 118° |
| 2026-04-26 07:58 | 32.71463 | 22.88245 | 35022 ft | 536 kts | 118° |
| 2026-04-26 07:59 | 32.67984 | 22.96060 | 35019 ft | 535 kts | 119° |
| 2026-04-26 07:59 | 32.64499 | 23.03880 | 35018 ft | 536 kts | 119° |
| 2026-04-26 08:00 | 32.61006 | 23.11696 | 35026 ft | 536 kts | 119° |
| 2026-04-26 08:00 | 32.57507 | 23.19511 | 35029 ft | 537 kts | 119° |
| 2026-04-26 08:01 | 32.54000 | 23.27327 | 35026 ft | 538 kts | 120° |
| 2026-04-26 08:01 | 32.50480 | 23.35154 | 35027 ft | 538 kts | 120° |
| 2026-04-26 08:02 | 32.46977 | 23.42928 | 35027 ft | 539 kts | 120° |
| 2026-04-26 08:02 | 32.43439 | 23.50766 | 35029 ft | 540 kts | 120° |
| 2026-04-26 08:03 | 32.39888 | 23.58612 | 35030 ft | 541 kts | 121° |
| 2026-04-26 08:03 | 32.36318 | 23.66471 | 35022 ft | 543 kts | 121° |
| 2026-04-26 08:04 | 32.32740 | 23.74336 | 35015 ft | 543 kts | 121° |
| 2026-04-26 08:04 | 32.29157 | 23.82203 | 35023 ft | 543 kts | 121° |
| 2026-04-26 08:05 | 32.25565 | 23.90070 | 35018 ft | 545 kts | 121° |
| 2026-04-26 08:05 | 32.21967 | 23.97948 | 35008 ft | 545 kts | 121° |
| 2026-04-26 08:06 | 32.18359 | 24.05812 | 35008 ft | 544 kts | 121° |
| 2026-04-26 08:06 | 32.14772 | 24.13624 | 35013 ft | 545 kts | 121° |
| 2026-04-26 08:07 | 32.11153 | 24.21482 | 35007 ft | 545 kts | 121° |
| 2026-04-26 08:07 | 32.07521 | 24.29341 | 35010 ft | 545 kts | 121° |
| 2026-04-26 08:08 | 32.03896 | 24.37182 | 35011 ft | 544 kts | 121° |
| 2026-04-26 08:08 | 32.00270 | 24.45001 | 35002 ft | 544 kts | 121° |
| 2026-04-26 08:09 | 31.96645 | 24.52815 | 34985 ft | 543 kts | 122° |
| 2026-04-26 08:09 | 31.93009 | 24.60628 | 35010 ft | 544 kts | 122° |
| 2026-04-26 08:10 | 31.89364 | 24.68455 | 35003 ft | 546 kts | 122° |
| 2026-04-26 08:10 | 31.85702 | 24.76283 | 35009 ft | 547 kts | 122° |
| 2026-04-26 08:11 | 31.82021 | 24.84130 | 35006 ft | 548 kts | 122° |
| 2026-04-26 08:11 | 31.78363 | 24.91932 | 34999 ft | 549 kts | 123° |
| 2026-04-26 08:12 | 31.74665 | 24.99796 | 35002 ft | 550 kts | 123° |
| 2026-04-26 08:12 | 31.70995 | 25.07683 | 35000 ft | 552 kts | 120° |
| 2026-04-26 08:13 | 31.68247 | 25.16142 | 35006 ft | 557 kts | 108° |
| 2026-04-26 08:13 | 31.66732 | 25.25069 | 35010 ft | 559 kts | 99° |
| 2026-04-26 08:14 | 31.65736 | 25.34116 | 34991 ft | 559 kts | 98° |
| 2026-04-26 08:14 | 31.64707 | 25.43153 | 34986 ft | 558 kts | 99° |
| 2026-04-26 08:15 | 31.63618 | 25.52163 | 34985 ft | 557 kts | 99° |
| 2026-04-26 08:15 | 31.62509 | 25.61151 | 34990 ft | 556 kts | 99° |
| 2026-04-26 08:16 | 31.61399 | 25.70124 | 34986 ft | 556 kts | 99° |
| 2026-04-26 08:16 | 31.60290 | 25.79080 | 34990 ft | 555 kts | 99° |
| 2026-04-26 08:17 | 31.59183 | 25.87985 | 34987 ft | 555 kts | 99° |
| 2026-04-26 08:17 | 31.58061 | 25.96938 | 34987 ft | 555 kts | 99° |
| 2026-04-26 08:18 | 31.56629 | 26.05817 | 35006 ft | 553 kts | 105° |
| 2026-04-26 08:18 | 31.54780 | 26.14580 | 35000 ft | 554 kts | 106° |
| 2026-04-26 08:19 | 31.52912 | 26.23340 | 34999 ft | 554 kts | 106° |
| 2026-04-26 08:19 | 31.51073 | 26.32126 | 34990 ft | 555 kts | 106° |
| 2026-04-26 08:20 | 31.49248 | 26.40922 | 34993 ft | 556 kts | 106° |
| 2026-04-26 08:20 | 31.47421 | 26.49675 | 34985 ft | 557 kts | 106° |
| 2026-04-26 08:21 | 31.45573 | 26.58479 | 34997 ft | 557 kts | 107° |
| 2026-04-26 08:21 | 31.43714 | 26.67300 | 34999 ft | 557 kts | 107° |
| 2026-04-26 08:22 | 31.41851 | 26.76117 | 34985 ft | 558 kts | 107° |
| 2026-04-26 08:22 | 31.39982 | 26.84931 | 35000 ft | 558 kts | 107° |
| 2026-04-26 08:23 | 31.38103 | 26.93749 | 34986 ft | 558 kts | 107° |
| 2026-04-26 08:23 | 31.36218 | 27.02572 | 35001 ft | 559 kts | 107° |
| 2026-04-26 08:24 | 31.34328 | 27.11390 | 34992 ft | 558 kts | 107° |
| 2026-04-26 08:24 | 31.32093 | 27.20039 | 34982 ft | 552 kts | 117° |
| 2026-04-26 08:25 | 31.28711 | 27.28033 | 34994 ft | 545 kts | 127° |
| 2026-04-26 08:25 | 31.24515 | 27.35270 | 34997 ft | 541 kts | 131° |
| 2026-04-26 08:26 | 31.20228 | 27.42523 | 34984 ft | 543 kts | 130° |
| 2026-04-26 08:26 | 31.15990 | 27.49831 | 35003 ft | 543 kts | 130° |
| 2026-04-26 08:27 | 31.11737 | 27.57141 | 34985 ft | 545 kts | 130° |
| 2026-04-26 08:27 | 31.07410 | 27.64396 | 35001 ft | 545 kts | 131° |
| 2026-04-26 08:28 | 31.03065 | 27.71627 | 34997 ft | 545 kts | 131° |
| 2026-04-26 08:28 | 30.98713 | 27.78877 | 34987 ft | 545 kts | 131° |
| 2026-04-26 08:29 | 30.94364 | 27.86133 | 34987 ft | 546 kts | 131° |
| 2026-04-26 08:29 | 30.90014 | 27.93379 | 34987 ft | 546 kts | 131° |
| 2026-04-26 08:30 | 30.85647 | 28.00636 | 34984 ft | 547 kts | 131° |
| 2026-04-26 08:30 | 30.81304 | 28.07841 | 34988 ft | 547 kts | 132° |
| 2026-04-26 08:31 | 30.76927 | 28.15087 | 35003 ft | 548 kts | 132° |
| 2026-04-26 08:31 | 30.72536 | 28.22343 | 34986 ft | 549 kts | 132° |
| 2026-04-26 08:32 | 30.68134 | 28.29605 | 34984 ft | 550 kts | 132° |
| 2026-04-26 08:32 | 30.63725 | 28.36861 | 34992 ft | 550 kts | 132° |
| 2026-04-26 08:33 | 30.59317 | 28.44110 | 34985 ft | 550 kts | 132° |
| 2026-04-26 08:33 | 30.54901 | 28.51358 | 35001 ft | 550 kts | 132° |
| 2026-04-26 08:34 | 30.50476 | 28.58608 | 35000 ft | 551 kts | 133° |
| 2026-04-26 08:34 | 30.46044 | 28.65849 | 34996 ft | 550 kts | 133° |
| 2026-04-26 08:35 | 30.41614 | 28.73078 | 34997 ft | 550 kts | 133° |
| 2026-04-26 08:35 | 30.37176 | 28.80307 | 35007 ft | 550 kts | 133° |
| 2026-04-26 08:36 | 30.32737 | 28.87522 | 35007 ft | 550 kts | 133° |
| 2026-04-26 08:36 | 30.28294 | 28.94736 | 35001 ft | 550 kts | 133° |
| 2026-04-26 08:37 | 30.23851 | 29.01938 | 34992 ft | 550 kts | 133° |
| 2026-04-26 08:37 | 30.19424 | 29.09096 | 34998 ft | 551 kts | 133° |
| 2026-04-26 08:38 | 30.14966 | 29.16289 | 34996 ft | 550 kts | 133° |
| 2026-04-26 08:38 | 30.10522 | 29.23481 | 35003 ft | 550 kts | 133° |
| 2026-04-26 08:39 | 30.06142 | 29.30742 | 34998 ft | 551 kts | 133° |
| 2026-04-26 08:39 | 30.01776 | 29.38022 | 35005 ft | 551 kts | 133° |
| 2026-04-26 08:40 | 29.97393 | 29.45289 | 34987 ft | 552 kts | 133° |
| 2026-04-26 08:40 | 29.92983 | 29.52556 | 35015 ft | 554 kts | 133° |
| 2026-04-26 08:41 | 29.88557 | 29.59840 | 35016 ft | 556 kts | 133° |
| 2026-04-26 08:41 | 29.84118 | 29.67136 | 35021 ft | 557 kts | 133° |
| 2026-04-26 08:42 | 29.80417 | 29.73214 | 35020 ft | 557 kts | 133° |
| 2026-04-26 08:42 | 29.75211 | 29.81748 | 35022 ft | 557 kts | 133° |
| 2026-04-26 08:43 | 29.71507 | 29.87806 | 35025 ft | 557 kts | 133° |
| 2026-04-26 08:43 | 29.66328 | 29.96258 | 35029 ft | 556 kts | 133° |
| 2026-04-26 08:44 | 29.61865 | 30.03528 | 35024 ft | 556 kts | 133° |
| 2026-04-26 08:44 | 29.58155 | 30.09564 | 35025 ft | 556 kts | 134° |
| 2026-04-26 08:45 | 29.53664 | 30.16863 | 35027 ft | 556 kts | 134° |
| 2026-04-26 08:45 | 29.49227 | 30.24054 | 35031 ft | 555 kts | 134° |
| 2026-04-26 08:46 | 29.44732 | 30.31330 | 35033 ft | 555 kts | 134° |
| 2026-04-26 08:46 | 29.40277 | 30.38468 | 35025 ft | 551 kts | 136° |
| 2026-04-26 08:47 | 29.35238 | 30.44937 | 35028 ft | 540 kts | 144° |
| 2026-04-26 08:47 | 29.29981 | 30.51072 | 35033 ft | 540 kts | 144° |
| 2026-04-26 08:48 | 29.24727 | 30.57243 | 35027 ft | 542 kts | 144° |
| 2026-04-26 08:48 | 29.19490 | 30.63455 | 35027 ft | 542 kts | 143° |
| 2026-04-26 08:49 | 29.14252 | 30.69677 | 35038 ft | 543 kts | 143° |
| 2026-04-26 08:49 | 29.09006 | 30.75897 | 35034 ft | 544 kts | 144° |
| 2026-04-26 08:50 | 29.03747 | 30.82117 | 35043 ft | 544 kts | 144° |
| 2026-04-26 08:50 | 28.98492 | 30.88319 | 35037 ft | 544 kts | 144° |
| 2026-04-26 08:51 | 28.90594 | 30.97635 | 35031 ft | 544 kts | 144° |
| 2026-04-26 08:52 | 28.85326 | 31.03826 | 35028 ft | 544 kts | 144° |
| 2026-04-26 08:52 | 28.80088 | 31.09972 | 35030 ft | 544 kts | 144° |
| 2026-04-26 08:53 | 28.74820 | 31.16154 | 35025 ft | 544 kts | 144° |
| 2026-04-26 08:53 | 28.69544 | 31.22334 | 35023 ft | 544 kts | 143° |
| 2026-04-26 08:54 | 28.64398 | 31.28690 | 35037 ft | 547 kts | 141° |
| 2026-04-26 08:54 | 28.59338 | 31.35170 | 35041 ft | 548 kts | 141° |
| 2026-04-26 08:55 | 28.54255 | 31.41639 | 35034 ft | 547 kts | 142° |
| 2026-04-26 08:55 | 28.49152 | 31.48059 | 35042 ft | 547 kts | 142° |
| 2026-04-26 08:56 | 28.44028 | 31.54474 | 35039 ft | 548 kts | 142° |
| 2026-04-26 08:56 | 28.38908 | 31.60881 | 35040 ft | 548 kts | 142° |
| 2026-04-26 08:57 | 28.33776 | 31.67297 | 35030 ft | 549 kts | 142° |
| 2026-04-26 08:57 | 28.28672 | 31.73665 | 35037 ft | 550 kts | 142° |
| 2026-04-26 08:58 | 28.23520 | 31.80089 | 35038 ft | 550 kts | 142° |
| 2026-04-26 08:58 | 28.18368 | 31.86505 | 35033 ft | 551 kts | 142° |
| 2026-04-26 08:59 | 28.13200 | 31.92923 | 35023 ft | 551 kts | 142° |
| 2026-04-26 08:59 | 28.08027 | 31.99340 | 35021 ft | 551 kts | 142° |
| 2026-04-26 09:00 | 28.03077 | 32.06023 | 35017 ft | 560 kts | 134° |
| 2026-04-26 09:00 | 27.99044 | 32.13693 | 35019 ft | 571 kts | 126° |
| 2026-04-26 09:01 | 27.95333 | 32.21635 | 35008 ft | 571 kts | 126° |
| 2026-04-26 09:01 | 27.91606 | 32.29486 | 35005 ft | 569 kts | 126° |
| 2026-04-26 09:02 | 27.87812 | 32.37326 | 35001 ft | 568 kts | 127° |
| 2026-04-26 09:02 | 27.84012 | 32.45153 | 34980 ft | 568 kts | 127° |
| 2026-04-26 09:03 | 27.80218 | 32.52966 | 34983 ft | 567 kts | 127° |
| 2026-04-26 09:03 | 27.76417 | 32.60793 | 34952 ft | 568 kts | 127° |
| 2026-04-26 09:04 | 27.72613 | 32.68603 | 34962 ft | 567 kts | 127° |
| 2026-04-26 09:04 | 27.68805 | 32.76394 | 34953 ft | 567 kts | 127° |
| 2026-04-26 09:05 | 27.65000 | 32.84179 | 34944 ft | 566 kts | 127° |
| 2026-04-26 09:05 | 27.61190 | 32.91954 | 34942 ft | 567 kts | 127° |
| 2026-04-26 09:06 | 27.57371 | 32.99736 | 34944 ft | 567 kts | 126° |
| 2026-04-26 09:06 | 27.53573 | 33.07463 | 34941 ft | 568 kts | 126° |
| 2026-04-26 09:07 | 27.49742 | 33.15237 | 34946 ft | 568 kts | 127° |
| 2026-04-26 09:07 | 27.45899 | 33.23032 | 34942 ft | 569 kts | 126° |
| 2026-04-26 09:08 | 27.42052 | 33.30819 | 34947 ft | 569 kts | 127° |
| 2026-04-26 09:08 | 27.38202 | 33.38595 | 34944 ft | 568 kts | 127° |
| 2026-04-26 09:09 | 27.34353 | 33.46351 | 34944 ft | 568 kts | 126° |
| 2026-04-26 09:09 | 27.30502 | 33.54104 | 34946 ft | 568 kts | 126° |
| 2026-04-26 09:10 | 27.26649 | 33.61859 | 34946 ft | 568 kts | 126° |
| 2026-04-26 09:10 | 27.22795 | 33.69592 | 34945 ft | 567 kts | 127° |
| 2026-04-26 09:11 | 27.18940 | 33.77322 | 34935 ft | 567 kts | 126° |
| 2026-04-26 09:11 | 27.15606 | 33.85362 | 34942 ft | 576 kts | 118° |
| 2026-04-26 09:12 | 27.12708 | 33.93747 | 34932 ft | 576 kts | 117° |
| 2026-04-26 09:12 | 27.09791 | 34.02102 | 34947 ft | 574 kts | 118° |
| 2026-04-26 09:13 | 27.06816 | 34.10421 | 34946 ft | 574 kts | 118° |
| 2026-04-26 09:13 | 27.03834 | 34.18720 | 34943 ft | 573 kts | 118° |
| 2026-04-26 09:14 | 27.00859 | 34.27016 | 34944 ft | 573 kts | 118° |
| 2026-04-26 09:14 | 26.97888 | 34.35307 | 34947 ft | 573 kts | 118° |
| 2026-04-26 09:15 | 26.94936 | 34.43537 | 34943 ft | 573 kts | 118° |
| 2026-04-26 09:15 | 26.91954 | 34.51822 | 34946 ft | 573 kts | 118° |
| 2026-04-26 09:16 | 26.88970 | 34.60099 | 34945 ft | 573 kts | 118° |
| 2026-04-26 09:16 | 26.85977 | 34.68379 | 34934 ft | 573 kts | 118° |
| 2026-04-26 09:17 | 26.82985 | 34.76644 | 34948 ft | 573 kts | 118° |
| 2026-04-26 09:17 | 26.79981 | 34.84926 | 34943 ft | 574 kts | 118° |
| 2026-04-26 09:18 | 26.76975 | 34.93192 | 34948 ft | 574 kts | 118° |
| 2026-04-26 09:18 | 26.73952 | 35.01463 | 34942 ft | 574 kts | 118° |
| 2026-04-26 09:19 | 26.70918 | 35.09731 | 34949 ft | 574 kts | 118° |
| 2026-04-26 09:19 | 26.67884 | 35.17994 | 34948 ft | 574 kts | 118° |
| 2026-04-26 09:20 | 26.64866 | 35.26191 | 34934 ft | 574 kts | 118° |
| 2026-04-26 09:20 | 26.61824 | 35.34436 | 34935 ft | 573 kts | 118° |
| 2026-04-26 09:21 | 26.58782 | 35.42676 | 34932 ft | 573 kts | 118° |
| 2026-04-26 09:21 | 26.55733 | 35.50892 | 34935 ft | 573 kts | 119° |
| 2026-04-26 09:22 | 26.52612 | 35.59072 | 34934 ft | 571 kts | 119° |
| 2026-04-26 09:22 | 26.49470 | 35.67225 | 34936 ft | 572 kts | 119° |
| 2026-04-26 09:23 | 26.46333 | 35.75377 | 34928 ft | 572 kts | 119° |
| 2026-04-26 09:23 | 26.43198 | 35.83540 | 34926 ft | 572 kts | 119° |
| 2026-04-26 09:24 | 26.40060 | 35.91695 | 34926 ft | 572 kts | 119° |
| 2026-04-26 09:24 | 26.36919 | 35.99836 | 34928 ft | 572 kts | 119° |
| 2026-04-26 09:25 | 26.33774 | 36.07976 | 34917 ft | 571 kts | 119° |
| 2026-04-26 09:25 | 26.30646 | 36.16053 | 34917 ft | 571 kts | 119° |
| 2026-04-26 09:26 | 26.27492 | 36.24177 | 34917 ft | 571 kts | 119° |
| 2026-04-26 09:26 | 26.24337 | 36.32290 | 34918 ft | 571 kts | 120° |
| 2026-04-26 09:27 | 26.21173 | 36.40411 | 34917 ft | 571 kts | 120° |
| 2026-04-26 09:27 | 26.17998 | 36.48515 | 34916 ft | 570 kts | 121° |
| 2026-04-26 09:28 | 26.14324 | 36.56285 | 34920 ft | 565 kts | 126° |
| 2026-04-26 09:28 | 26.10493 | 36.63924 | 34923 ft | 565 kts | 126° |
| 2026-04-26 09:29 | 26.06681 | 36.71585 | 34921 ft | 567 kts | 126° |
| 2026-04-26 09:29 | 26.02912 | 36.79221 | 34915 ft | 568 kts | 126° |
| 2026-04-26 09:30 | 25.99110 | 36.86924 | 34919 ft | 568 kts | 125° |
| 2026-04-26 09:30 | 25.95303 | 36.94621 | 34922 ft | 568 kts | 125° |
| 2026-04-26 09:31 | 25.91497 | 37.02298 | 34915 ft | 567 kts | 125° |
| 2026-04-26 09:31 | 25.87684 | 37.09971 | 34917 ft | 567 kts | 125° |
| 2026-04-26 09:32 | 25.83876 | 37.17623 | 34915 ft | 566 kts | 125° |
| 2026-04-26 09:32 | 25.80070 | 37.25261 | 34914 ft | 565 kts | 125° |
| 2026-04-26 09:33 | 25.76266 | 37.32895 | 34919 ft | 565 kts | 125° |
| 2026-04-26 09:33 | 25.72464 | 37.40529 | 34910 ft | 565 kts | 125° |
| 2026-04-26 09:34 | 25.68659 | 37.48157 | 34911 ft | 565 kts | 125° |
| 2026-04-26 09:34 | 25.64851 | 37.55765 | 34927 ft | 565 kts | 126° |
| 2026-04-26 09:35 | 25.61072 | 37.63404 | 34950 ft | 562 kts | 125° |
| 2026-04-26 09:35 | 25.57281 | 37.70940 | 34927 ft | 565 kts | 126° |
| 2026-04-26 09:36 | 25.53425 | 37.78543 | 34945 ft | 567 kts | 126° |
| 2026-04-26 09:36 | 25.49580 | 37.86167 | 34933 ft | 568 kts | 126° |
| 2026-04-26 09:37 | 25.45732 | 37.93808 | 34934 ft | 568 kts | 125° |
| 2026-04-26 09:37 | 25.41876 | 38.01447 | 34936 ft | 569 kts | 125° |
| 2026-04-26 09:38 | 25.38668 | 38.07792 | 34935 ft | 568 kts | 125° |
| 2026-04-26 09:38 | 25.34812 | 38.15413 | 34949 ft | 567 kts | 125° |
| 2026-04-26 09:39 | 25.30956 | 38.23007 | 34932 ft | 567 kts | 125° |
| 2026-04-26 09:39 | 25.27097 | 38.30598 | 34967 ft | 565 kts | 125° |
| 2026-04-26 09:40 | 25.23248 | 38.38163 | 34976 ft | 565 kts | 125° |
| 2026-04-26 09:40 | 25.19393 | 38.45720 | 34960 ft | 564 kts | 125° |
| 2026-04-26 09:41 | 25.15545 | 38.53260 | 34968 ft | 563 kts | 125° |
| 2026-04-26 09:41 | 25.11724 | 38.60736 | 34974 ft | 563 kts | 125° |
| 2026-04-26 09:42 | 25.07874 | 38.68255 | 34981 ft | 562 kts | 125° |
| 2026-04-26 09:42 | 25.04028 | 38.75758 | 34974 ft | 562 kts | 125° |
| 2026-04-26 09:43 | 25.00180 | 38.83257 | 34979 ft | 562 kts | 125° |
| 2026-04-26 09:43 | 24.96332 | 38.90743 | 34978 ft | 561 kts | 125° |
| 2026-04-26 09:44 | 24.92467 | 38.98210 | 34999 ft | 561 kts | 125° |
| 2026-04-26 09:44 | 24.88590 | 39.05663 | 35000 ft | 561 kts | 126° |
| 2026-04-26 09:45 | 24.84712 | 39.13118 | 35010 ft | 561 kts | 125° |
| 2026-04-26 09:45 | 24.80857 | 39.20524 | 35018 ft | 561 kts | 125° |
| 2026-04-26 09:46 | 24.76972 | 39.27977 | 35022 ft | 561 kts | 125° |
| 2026-04-26 09:46 | 24.73082 | 39.35427 | 35026 ft | 561 kts | 125° |
| 2026-04-26 09:47 | 24.69196 | 39.42866 | 35033 ft | 561 kts | 125° |
| 2026-04-26 09:47 | 24.65301 | 39.50302 | 35037 ft | 560 kts | 125° |
| 2026-04-26 09:48 | 24.61415 | 39.57719 | 35033 ft | 560 kts | 126° |
| 2026-04-26 09:48 | 24.57560 | 39.65149 | 35040 ft | 561 kts | 121° |
| 2026-04-26 09:49 | 24.54770 | 39.73211 | 35049 ft | 568 kts | 108° |
| 2026-04-26 09:49 | 24.53437 | 39.81786 | 35050 ft | 571 kts | 97° |
| 2026-04-26 09:50 | 24.52711 | 39.90475 | 35040 ft | 571 kts | 96° |
| 2026-04-26 09:50 | 24.51952 | 39.99149 | 35047 ft | 570 kts | 97° |
| 2026-04-26 09:51 | 24.51131 | 40.07736 | 35046 ft | 569 kts | 97° |
| 2026-04-26 09:51 | 24.50278 | 40.16378 | 35044 ft | 568 kts | 97° |
| 2026-04-26 09:52 | 24.49423 | 40.25015 | 35043 ft | 568 kts | 97° |
| 2026-04-26 09:52 | 24.48147 | 40.37954 | 35040 ft | 568 kts | 97° |
| 2026-04-26 09:53 | 24.47287 | 40.46579 | 35039 ft | 569 kts | 97° |
| 2026-04-26 09:53 | 24.46423 | 40.55207 | 35037 ft | 569 kts | 97° |
| 2026-04-26 09:54 | 24.45552 | 40.63853 | 35037 ft | 570 kts | 98° |
| 2026-04-26 09:54 | 24.44685 | 40.72487 | 35037 ft | 570 kts | 97° |
| 2026-04-26 09:55 | 24.43817 | 40.81138 | 35037 ft | 570 kts | 98° |
| 2026-04-26 09:55 | 24.42940 | 40.89786 | 35040 ft | 570 kts | 98° |
| 2026-04-26 09:56 | 24.42064 | 40.98375 | 35038 ft | 570 kts | 98° |
| 2026-04-26 09:56 | 24.41178 | 41.07014 | 35038 ft | 569 kts | 98° |
| 2026-04-26 09:57 | 24.40279 | 41.15635 | 35061 ft | 568 kts | 98° |
| 2026-04-26 09:57 | 24.39367 | 41.24247 | 35077 ft | 568 kts | 98° |
| 2026-04-26 09:58 | 24.38452 | 41.32838 | 35074 ft | 567 kts | 98° |
| 2026-04-26 09:58 | 24.37536 | 41.41423 | 35072 ft | 566 kts | 98° |
| 2026-04-26 09:59 | 24.36618 | 41.50004 | 35078 ft | 565 kts | 98° |
| 2026-04-26 09:59 | 24.35701 | 41.58511 | 35070 ft | 565 kts | 98° |
| 2026-04-26 10:00 | 24.34774 | 41.67061 | 35071 ft | 564 kts | 98° |
| 2026-04-26 10:00 | 24.33844 | 41.75603 | 35062 ft | 564 kts | 98° |
| 2026-04-26 10:01 | 24.32711 | 41.84096 | 35058 ft | 562 kts | 104° |
| 2026-04-26 10:01 | 24.30612 | 41.92313 | 35063 ft | 559 kts | 109° |
| 2026-04-26 10:02 | 24.28374 | 42.00478 | 35064 ft | 559 kts | 109° |
| 2026-04-26 10:02 | 24.26175 | 42.08658 | 35066 ft | 559 kts | 109° |
| 2026-04-26 10:03 | 24.24010 | 42.16848 | 35063 ft | 559 kts | 109° |
| 2026-04-26 10:03 | 24.21858 | 42.24991 | 35064 ft | 560 kts | 109° |
| 2026-04-26 10:04 | 24.19688 | 42.33186 | 35067 ft | 560 kts | 109° |
| 2026-04-26 10:04 | 24.17503 | 42.41382 | 35062 ft | 560 kts | 109° |
| 2026-04-26 10:05 | 24.15315 | 42.49569 | 35062 ft | 561 kts | 109° |
| 2026-04-26 10:05 | 24.13117 | 42.57778 | 35059 ft | 561 kts | 109° |
| 2026-04-26 10:06 | 24.10919 | 42.65979 | 35030 ft | 561 kts | 109° |
| 2026-04-26 10:06 | 24.08731 | 42.74119 | 35029 ft | 561 kts | 109° |
| 2026-04-26 10:07 | 24.06519 | 42.82330 | 35026 ft | 562 kts | 109° |
| 2026-04-26 10:07 | 24.04309 | 42.90516 | 35032 ft | 562 kts | 109° |
| 2026-04-26 10:08 | 24.02090 | 42.98722 | 35026 ft | 562 kts | 109° |
| 2026-04-26 10:08 | 23.99871 | 43.06921 | 35028 ft | 562 kts | 109° |
| 2026-04-26 10:09 | 23.97650 | 43.15108 | 35033 ft | 561 kts | 109° |
| 2026-04-26 10:09 | 23.95446 | 43.23209 | 35027 ft | 559 kts | 109° |
| 2026-04-26 10:10 | 23.93226 | 43.31353 | 35029 ft | 558 kts | 109° |
| 2026-04-26 10:10 | 23.91008 | 43.39487 | 35029 ft | 558 kts | 109° |
| 2026-04-26 10:11 | 23.88782 | 43.47609 | 35023 ft | 557 kts | 109° |
| 2026-04-26 10:11 | 23.86557 | 43.55716 | 35021 ft | 557 kts | 109° |
| 2026-04-26 10:12 | 23.84325 | 43.63823 | 35022 ft | 557 kts | 109° |
| 2026-04-26 10:12 | 23.82094 | 43.71923 | 35021 ft | 557 kts | 109° |
| 2026-04-26 10:13 | 23.79855 | 43.80034 | 35018 ft | 558 kts | 109° |
| 2026-04-26 10:13 | 23.77735 | 43.88188 | 35020 ft | 560 kts | 104° |
| 2026-04-26 10:14 | 23.76689 | 43.96622 | 35024 ft | 562 kts | 95° |
| 2026-04-26 10:14 | 23.76143 | 44.05125 | 35019 ft | 562 kts | 94° |
| 2026-04-26 10:15 | 23.75567 | 44.13583 | 35019 ft | 562 kts | 95° |
| 2026-04-26 10:15 | 23.74933 | 44.22089 | 35018 ft | 562 kts | 95° |
| 2026-04-26 10:16 | 23.74279 | 44.30583 | 35020 ft | 562 kts | 95° |
| 2026-04-26 10:16 | 23.73624 | 44.39080 | 35017 ft | 561 kts | 95° |
| 2026-04-26 10:17 | 23.72971 | 44.47558 | 35021 ft | 560 kts | 95° |
| 2026-04-26 10:17 | 23.72315 | 44.56025 | 35017 ft | 560 kts | 95° |
| 2026-04-26 10:18 | 23.71654 | 44.64486 | 35016 ft | 559 kts | 95° |
| 2026-04-26 10:18 | 23.70988 | 44.72937 | 35019 ft | 558 kts | 95° |
| 2026-04-26 10:19 | 23.70321 | 44.81371 | 35022 ft | 558 kts | 95° |
| 2026-04-26 10:19 | 23.69648 | 44.89795 | 35017 ft | 557 kts | 95° |
| 2026-04-26 10:20 | 23.69083 | 44.96797 | 35023 ft | 557 kts | 95° |
| 2026-04-26 10:20 | 23.68284 | 45.06634 | 35018 ft | 556 kts | 95° |
| 2026-04-26 10:21 | 23.67600 | 45.15025 | 35019 ft | 556 kts | 95° |
| 2026-04-26 10:21 | 23.66909 | 45.23427 | 35021 ft | 555 kts | 95° |
| 2026-04-26 10:22 | 23.66216 | 45.31823 | 35007 ft | 556 kts | 95° |
| 2026-04-26 10:22 | 23.65523 | 45.40179 | 35006 ft | 556 kts | 95° |
| 2026-04-26 10:23 | 23.64824 | 45.48581 | 35012 ft | 556 kts | 95° |
| 2026-04-26 10:23 | 23.64116 | 45.56997 | 35006 ft | 556 kts | 95° |
| 2026-04-26 10:24 | 23.63405 | 45.65404 | 35008 ft | 556 kts | 95° |
| 2026-04-26 10:24 | 23.62691 | 45.73813 | 35016 ft | 556 kts | 95° |
| 2026-04-26 10:25 | 23.61978 | 45.82156 | 35008 ft | 557 kts | 95° |
| 2026-04-26 10:25 | 23.61256 | 45.90576 | 35007 ft | 558 kts | 95° |
| 2026-04-26 10:26 | 23.60529 | 45.99005 | 35020 ft | 558 kts | 95° |
| 2026-04-26 10:26 | 23.59793 | 46.07439 | 35014 ft | 558 kts | 95° |
| 2026-04-26 10:27 | 23.59052 | 46.15858 | 35010 ft | 557 kts | 95° |
| 2026-04-26 10:27 | 23.58311 | 46.24271 | 35015 ft | 557 kts | 95° |
| 2026-04-26 10:28 | 23.57568 | 46.32666 | 35017 ft | 556 kts | 95° |
| 2026-04-26 10:28 | 23.56826 | 46.40983 | 35025 ft | 555 kts | 95° |
| 2026-04-26 10:29 | 23.56077 | 46.49350 | 35029 ft | 555 kts | 96° |
| 2026-04-26 10:29 | 23.55315 | 46.57727 | 35036 ft | 555 kts | 95° |
| 2026-04-26 10:30 | 23.54543 | 46.66093 | 35031 ft | 554 kts | 95° |
| 2026-04-26 10:30 | 23.53899 | 46.73040 | 35040 ft | 554 kts | 96° |
| 2026-04-26 10:31 | 23.53120 | 46.81388 | 35037 ft | 553 kts | 95° |
| 2026-04-26 10:31 | 23.52340 | 46.89723 | 35038 ft | 553 kts | 95° |
| 2026-04-26 10:32 | 23.51556 | 46.98059 | 35038 ft | 553 kts | 95° |
| 2026-04-26 10:32 | 23.50767 | 47.06406 | 35038 ft | 553 kts | 95° |
| 2026-04-26 10:33 | 23.49973 | 47.14744 | 35038 ft | 553 kts | 95° |
| 2026-04-26 10:33 | 23.49175 | 47.23078 | 35033 ft | 553 kts | 95° |
| 2026-04-26 10:34 | 23.48376 | 47.31364 | 35041 ft | 553 kts | 96° |
| 2026-04-26 10:34 | 23.47570 | 47.39698 | 35042 ft | 553 kts | 96° |
| 2026-04-26 10:35 | 23.46759 | 47.48043 | 35050 ft | 554 kts | 96° |
| 2026-04-26 10:35 | 23.45943 | 47.56389 | 35043 ft | 554 kts | 96° |
| 2026-04-26 10:36 | 23.45129 | 47.64727 | 35041 ft | 554 kts | 96° |
| 2026-04-26 10:36 | 23.44313 | 47.73082 | 35037 ft | 555 kts | 96° |
| 2026-04-26 10:37 | 23.43491 | 47.81437 | 35036 ft | 555 kts | 96° |
| 2026-04-26 10:37 | 23.42663 | 47.89808 | 35039 ft | 555 kts | 96° |
| 2026-04-26 10:38 | 23.41830 | 47.98167 | 35039 ft | 555 kts | 96° |
| 2026-04-26 10:38 | 23.40993 | 48.06526 | 35037 ft | 555 kts | 96° |
| 2026-04-26 10:39 | 23.40153 | 48.14874 | 35039 ft | 555 kts | 96° |
| 2026-04-26 10:39 | 23.39308 | 48.23211 | 35034 ft | 554 kts | 96° |
| 2026-04-26 10:40 | 23.38467 | 48.31484 | 35033 ft | 554 kts | 96° |
| 2026-04-26 10:40 | 23.37890 | 48.39836 | 35032 ft | 552 kts | 91° |
| 2026-04-26 10:41 | 23.37596 | 48.48183 | 35030 ft | 552 kts | 91° |
| 2026-04-26 10:41 | 23.37303 | 48.56535 | 35027 ft | 551 kts | 91° |
| 2026-04-26 10:42 | 23.36973 | 48.64877 | 35025 ft | 551 kts | 91° |
| 2026-04-26 10:42 | 23.36622 | 48.73214 | 35024 ft | 551 kts | 91° |
| 2026-04-26 10:43 | 23.36273 | 48.81495 | 35019 ft | 551 kts | 91° |
| 2026-04-26 10:43 | 23.35920 | 48.89827 | 35016 ft | 551 kts | 91° |
| 2026-04-26 10:44 | 23.35562 | 48.98165 | 35014 ft | 551 kts | 91° |
| 2026-04-26 10:44 | 23.35176 | 49.06491 | 35013 ft | 551 kts | 93° |
| 2026-04-26 10:45 | 23.34129 | 49.14743 | 35019 ft | 551 kts | 98° |
| 2026-04-26 10:45 | 23.32878 | 49.22975 | 35016 ft | 551 kts | 98° |
| 2026-04-26 10:46 | 23.31650 | 49.31196 | 35009 ft | 551 kts | 98° |
| 2026-04-26 10:46 | 23.30448 | 49.39439 | 35001 ft | 551 kts | 98° |
| 2026-04-26 10:47 | 23.29259 | 49.47670 | 34994 ft | 551 kts | 98° |
| 2026-04-26 10:47 | 23.28071 | 49.55846 | 34953 ft | 551 kts | 98° |
| 2026-04-26 10:48 | 23.26865 | 49.64085 | 34947 ft | 551 kts | 98° |
| 2026-04-26 10:48 | 23.25656 | 49.72317 | 34943 ft | 551 kts | 98° |
| 2026-04-26 10:49 | 23.24443 | 49.80543 | 34943 ft | 551 kts | 98° |
| 2026-04-26 10:49 | 23.23228 | 49.88755 | 34946 ft | 550 kts | 98° |
| 2026-04-26 10:50 | 23.22215 | 49.95583 | 34941 ft | 550 kts | 98° |
| 2026-04-26 10:50 | 23.20783 | 50.05188 | 34948 ft | 551 kts | 98° |
| 2026-04-26 10:51 | 23.18947 | 50.17450 | 34943 ft | 550 kts | 98° |
| 2026-04-26 10:52 | 23.17713 | 50.25660 | 34947 ft | 550 kts | 98° |
| 2026-04-26 10:52 | 23.16474 | 50.33867 | 34944 ft | 550 kts | 98° |
| 2026-04-26 10:53 | 23.15232 | 50.42067 | 34941 ft | 550 kts | 98° |
| 2026-04-26 10:53 | 23.13987 | 50.50253 | 34942 ft | 549 kts | 98° |
| 2026-04-26 10:54 | 23.12113 | 50.62523 | 34951 ft | 549 kts | 98° |
| 2026-04-26 10:54 | 23.10859 | 50.70696 | 34947 ft | 548 kts | 98° |
| 2026-04-26 10:55 | 23.09599 | 50.78870 | 34941 ft | 548 kts | 98° |
| 2026-04-26 10:55 | 23.08338 | 50.87040 | 34945 ft | 548 kts | 98° |
| 2026-04-26 10:56 | 23.07072 | 50.95204 | 34949 ft | 548 kts | 98° |
| 2026-04-26 10:56 | 23.05804 | 51.03360 | 34950 ft | 548 kts | 98° |
| 2026-04-26 10:57 | 23.04537 | 51.11461 | 34943 ft | 547 kts | 98° |
| 2026-04-26 10:57 | 23.03263 | 51.19594 | 34934 ft | 547 kts | 98° |
| 2026-04-26 10:58 | 23.01984 | 51.27732 | 34940 ft | 547 kts | 98° |
| 2026-04-26 10:58 | 23.00700 | 51.35871 | 34930 ft | 546 kts | 98° |
| 2026-04-26 10:59 | 22.99414 | 51.44000 | 34919 ft | 546 kts | 98° |
| 2026-04-26 10:59 | 22.98124 | 51.52126 | 34917 ft | 546 kts | 98° |
| 2026-04-26 11:00 | 22.96829 | 51.60252 | 34917 ft | 546 kts | 98° |
| 2026-04-26 11:00 | 22.95531 | 51.68366 | 34923 ft | 546 kts | 98° |
| 2026-04-26 11:01 | 22.94237 | 51.76425 | 34917 ft | 546 kts | 98° |
| 2026-04-26 11:01 | 22.92929 | 51.84532 | 34918 ft | 546 kts | 98° |
| 2026-04-26 11:02 | 22.91621 | 51.92648 | 34911 ft | 546 kts | 98° |
| 2026-04-26 11:02 | 22.90309 | 52.00759 | 34907 ft | 546 kts | 98° |
| 2026-04-26 11:03 | 22.88990 | 52.08865 | 34911 ft | 545 kts | 97° |
| 2026-04-26 11:03 | 22.87671 | 52.16948 | 34903 ft | 544 kts | 97° |
| 2026-04-26 11:04 | 22.86349 | 52.25018 | 34906 ft | 543 kts | 97° |
| 2026-04-26 11:04 | 22.85027 | 52.33069 | 34908 ft | 542 kts | 97° |
| 2026-04-26 11:05 | 22.83704 | 52.41118 | 34908 ft | 542 kts | 97° |
| 2026-04-26 11:05 | 22.82446 | 52.49170 | 34896 ft | 541 kts | 94° |
| 2026-04-26 11:06 | 22.82111 | 52.55909 | 34903 ft | 538 kts | 88° |
| 2026-04-26 11:06 | 22.81953 | 52.65334 | 34900 ft | 538 kts | 88° |
| 2026-04-26 11:07 | 22.81781 | 52.73502 | 34899 ft | 539 kts | 88° |
| 2026-04-26 11:07 | 22.81575 | 52.81568 | 34898 ft | 539 kts | 88° |
| 2026-04-26 11:08 | 22.81351 | 52.89691 | 34899 ft | 539 kts | 88° |
| 2026-04-26 11:08 | 22.81127 | 52.97806 | 34896 ft | 538 kts | 88° |
| 2026-04-26 11:09 | 22.80902 | 53.05924 | 34900 ft | 538 kts | 88° |
| 2026-04-26 11:09 | 22.80671 | 53.14025 | 34897 ft | 537 kts | 88° |
| 2026-04-26 11:10 | 22.80439 | 53.22119 | 34899 ft | 537 kts | 88° |
| 2026-04-26 11:10 | 22.80201 | 53.30208 | 34902 ft | 537 kts | 88° |
| 2026-04-26 11:11 | 22.79993 | 53.37178 | 34889 ft | 537 kts | 88° |
| 2026-04-26 11:11 | 22.79747 | 53.45255 | 34900 ft | 536 kts | 88° |
| 2026-04-26 11:12 | 22.79500 | 53.53276 | 34900 ft | 536 kts | 88° |
| 2026-04-26 11:12 | 22.79249 | 53.61344 | 34898 ft | 535 kts | 88° |
| 2026-04-26 11:13 | 22.78991 | 53.69401 | 34893 ft | 535 kts | 88° |
| 2026-04-26 11:13 | 22.78734 | 53.77445 | 34905 ft | 534 kts | 88° |
| 2026-04-26 11:14 | 22.78469 | 53.85494 | 34898 ft | 535 kts | 88° |
| 2026-04-26 11:14 | 22.78246 | 53.92190 | 34901 ft | 534 kts | 88° |
| 2026-04-26 11:15 | 22.78286 | 53.99442 | 34893 ft | 529 kts | 81° |
| 2026-04-26 11:15 | 22.79301 | 54.06245 | 34882 ft | 522 kts | 72° |
| 2026-04-26 11:16 | 22.80914 | 54.13930 | 34881 ft | 522 kts | 72° |
| 2026-04-26 11:16 | 22.82497 | 54.21628 | 34885 ft | 523 kts | 72° |
| 2026-04-26 11:17 | 22.84060 | 54.29327 | 34877 ft | 523 kts | 73° |
| 2026-04-26 11:17 | 22.85609 | 54.37040 | 34887 ft | 524 kts | 73° |
| 2026-04-26 11:18 | 22.87149 | 54.44705 | 34883 ft | 524 kts | 73° |
| 2026-04-26 11:18 | 22.88700 | 54.52437 | 34877 ft | 525 kts | 73° |
| 2026-04-26 11:19 | 22.90250 | 54.60175 | 34872 ft | 525 kts | 73° |
| 2026-04-26 11:19 | 22.91792 | 54.67911 | 34871 ft | 525 kts | 73° |
| 2026-04-26 11:20 | 22.93073 | 54.74344 | 34879 ft | 524 kts | 73° |
| 2026-04-26 11:20 | 22.94868 | 54.83385 | 34877 ft | 525 kts | 73° |
| 2026-04-26 11:21 | 22.96400 | 54.91122 | 34886 ft | 524 kts | 73° |
| 2026-04-26 11:21 | 22.97931 | 54.98862 | 34884 ft | 525 kts | 73° |
| 2026-04-26 11:22 | 22.99451 | 55.06592 | 34890 ft | 524 kts | 73° |
| 2026-04-26 11:22 | 23.00964 | 55.14318 | 34888 ft | 523 kts | 73° |
| 2026-04-26 11:23 | 23.01946 | 55.18062 | 34876 ft | 511 kts | 60° |
| 2026-04-26 11:23 | 23.03757 | 55.21315 | 34894 ft | 497 kts | 44° |
| 2026-04-26 11:23 | 23.08061 | 55.25257 | 34890 ft | 482 kts | 25° |
| 2026-04-26 11:24 | 23.11048 | 55.26792 | 34883 ft | 470 kts | 11° |
| 2026-04-26 11:24 | 23.14189 | 55.27680 | 34908 ft | 467 kts | 8° |
| 2026-04-26 11:24 | 23.20533 | 55.29408 | 34901 ft | 473 kts | 9° |
| 2026-04-26 11:25 | 23.26921 | 55.31235 | 34891 ft | 476 kts | 9° |
| 2026-04-26 11:25 | 23.33326 | 55.33116 | 34890 ft | 477 kts | 10° |
| 2026-04-26 11:26 | 23.39726 | 55.35002 | 34884 ft | 476 kts | 9° |
| 2026-04-26 11:26 | 23.46112 | 55.36886 | 34887 ft | 474 kts | 9° |
| 2026-04-26 11:27 | 23.52474 | 55.38756 | 34893 ft | 472 kts | 9° |
| 2026-04-26 11:27 | 23.58772 | 55.40625 | 34898 ft | 472 kts | 9° |
| 2026-04-26 11:28 | 23.65104 | 55.42511 | 34897 ft | 472 kts | 9° |
| 2026-04-26 11:28 | 23.71441 | 55.44396 | 34903 ft | 472 kts | 9° |
| 2026-04-26 11:29 | 23.77788 | 55.46287 | 34898 ft | 473 kts | 9° |
| 2026-04-26 11:29 | 23.84136 | 55.48181 | 34902 ft | 473 kts | 9° |
| 2026-04-26 11:30 | 23.89424 | 55.49755 | 34897 ft | 474 kts | 9° |
| 2026-04-26 11:30 | 23.96850 | 55.52025 | 34902 ft | 477 kts | 14° |
| 2026-04-26 11:31 | 24.02875 | 55.55325 | 34348 ft | 497 kts | 26° |
| 2026-04-26 11:31 | 24.05696 | 55.57607 | 33452 ft | 509 kts | 34° |
| 2026-04-26 11:31 | 24.08301 | 55.60159 | 32455 ft | 511 kts | 37° |
| 2026-04-26 11:32 | 24.10912 | 55.62814 | 31382 ft | 514 kts | 39° |
| 2026-04-26 11:32 | 24.13536 | 55.65500 | 30458 ft | 513 kts | 40° |
| 2026-04-26 11:32 | 24.16139 | 55.68142 | 29716 ft | 509 kts | 41° |
| 2026-04-26 11:32 | 24.18735 | 55.70750 | 28976 ft | 505 kts | 41° |
| 2026-04-26 11:33 | 24.21329 | 55.73335 | 28220 ft | 502 kts | 41° |
| 2026-04-26 11:33 | 24.23911 | 55.75896 | 27488 ft | 498 kts | 41° |
| 2026-04-26 11:33 | 24.26471 | 55.78431 | 26766 ft | 495 kts | 40° |
| 2026-04-26 11:33 | 24.29013 | 55.80953 | 26032 ft | 491 kts | 40° |
| 2026-04-26 11:34 | 24.31533 | 55.83458 | 25323 ft | 487 kts | 40° |
| 2026-04-26 11:34 | 24.34030 | 55.85942 | 24611 ft | 483 kts | 40° |
| 2026-04-26 11:34 | 24.36514 | 55.88414 | 23899 ft | 480 kts | 40° |
| 2026-04-26 11:34 | 24.38974 | 55.90865 | 23196 ft | 476 kts | 40° |
| 2026-04-26 11:35 | 24.41420 | 55.93307 | 22497 ft | 472 kts | 40° |
| 2026-04-26 11:35 | 24.43835 | 55.95721 | 21805 ft | 468 kts | 40° |
| 2026-04-26 11:35 | 24.46226 | 55.98113 | 21114 ft | 464 kts | 41° |
| 2026-04-26 11:35 | 24.48603 | 56.00493 | 20425 ft | 460 kts | 41° |
| 2026-04-26 11:36 | 24.50954 | 56.02847 | 19745 ft | 456 kts | 41° |
| 2026-04-26 11:36 | 24.53289 | 56.05185 | 19061 ft | 452 kts | 41° |
| 2026-04-26 11:36 | 24.55601 | 56.07499 | 18411 ft | 448 kts | 41° |
| 2026-04-26 11:36 | 24.57889 | 56.09703 | 17744 ft | 440 kts | 36° |
| 2026-04-26 11:37 | 24.60465 | 56.11462 | 17098 ft | 434 kts | 25° |
| 2026-04-26 11:37 | 24.63242 | 56.12689 | 16426 ft | 429 kts | 16° |
| 2026-04-26 11:37 | 24.66140 | 56.13390 | 15748 ft | 424 kts | 6° |
| 2026-04-26 11:37 | 24.69042 | 56.13835 | 15093 ft | 420 kts | 7° |
| 2026-04-26 11:38 | 24.71931 | 56.14325 | 14434 ft | 417 kts | 8° |
| 2026-04-26 11:38 | 24.74773 | 56.14843 | 13813 ft | 412 kts | 8° |
| 2026-04-26 11:38 | 24.77586 | 56.15181 | 13144 ft | 404 kts | 358° |
| 2026-04-26 11:38 | 24.80319 | 56.14856 | 12963 ft | 388 kts | 347° |
| 2026-04-26 11:39 | 24.82867 | 56.14058 | 12812 ft | 370 kts | 336° |
| 2026-04-26 11:39 | 24.85156 | 56.12910 | 12755 ft | 354 kts | 333° |
| 2026-04-26 11:39 | 24.87352 | 56.11783 | 12623 ft | 343 kts | 333° |
| 2026-04-26 11:39 | 24.89485 | 56.10703 | 12478 ft | 333 kts | 333° |
| 2026-04-26 11:40 | 24.91560 | 56.09663 | 12340 ft | 322 kts | 334° |
| 2026-04-26 11:40 | 24.93568 | 56.08663 | 12224 ft | 312 kts | 333° |
| 2026-04-26 11:40 | 24.95518 | 56.07692 | 12090 ft | 303 kts | 334° |
| 2026-04-26 11:40 | 24.97359 | 56.06670 | 11926 ft | 286 kts | 322° |
| 2026-04-26 11:41 | 24.98741 | 56.05183 | 11819 ft | 272 kts | 308° |
| 2026-04-26 11:42 | 25.07646 | 55.94247 | 10822 ft | 273 kts | 310° |
| 2026-04-26 11:43 | 25.08911 | 55.92697 | 10694 ft | 271 kts | 310° |
| 2026-04-26 11:43 | 25.10163 | 55.91158 | 10561 ft | 269 kts | 310° |
| 2026-04-26 11:43 | 25.11413 | 55.89622 | 10449 ft | 268 kts | 310° |
| 2026-04-26 11:43 | 25.12655 | 55.88098 | 10307 ft | 267 kts | 310° |
| 2026-04-26 11:44 | 25.13890 | 55.86578 | 10186 ft | 265 kts | 310° |
| 2026-04-26 11:44 | 25.15121 | 55.85065 | 10085 ft | 264 kts | 310° |
| 2026-04-26 11:44 | 25.16270 | 55.83483 | 9819 ft | 265 kts | 302° |
| 2026-04-26 11:44 | 25.17237 | 55.81734 | 9551 ft | 269 kts | 300° |
| 2026-04-26 11:45 | 25.18190 | 55.79956 | 9277 ft | 269 kts | 300° |
| 2026-04-26 11:45 | 25.19149 | 55.78194 | 9020 ft | 265 kts | 300° |
| 2026-04-26 11:45 | 25.20096 | 55.76458 | 8719 ft | 263 kts | 301° |
| 2026-04-26 11:45 | 25.21042 | 55.74746 | 8436 ft | 260 kts | 301° |
| 2026-04-26 11:46 | 25.21982 | 55.73053 | 8174 ft | 257 kts | 301° |
| 2026-04-26 11:46 | 25.22914 | 55.71378 | 7825 ft | 258 kts | 301° |
| 2026-04-26 11:46 | 25.23873 | 55.69657 | 7158 ft | 270 kts | 301° |
| 2026-04-26 11:46 | 25.24862 | 55.67889 | 6398 ft | 273 kts | 301° |
| 2026-04-26 11:47 | 25.25851 | 55.66121 | 5639 ft | 268 kts | 302° |
| 2026-04-26 11:47 | 25.26832 | 55.64369 | 4879 ft | 263 kts | 302° |
| 2026-04-26 11:47 | 25.27758 | 55.62702 | 4403 ft | 249 kts | 302° |
| 2026-04-26 11:47 | 25.28637 | 55.61124 | 4189 ft | 236 kts | 302° |
| 2026-04-26 11:48 | 25.29247 | 55.59497 | 4027 ft | 233 kts | 276° |
| 2026-04-26 11:48 | 25.29001 | 55.57708 | 4028 ft | 241 kts | 248° |
| 2026-04-26 11:48 | 25.28050 | 55.56188 | 4031 ft | 243 kts | 225° |
| 2026-04-26 11:48 | 25.26669 | 55.55093 | 3889 ft | 250 kts | 211° |
| 2026-04-26 11:49 | 25.24955 | 55.54613 | 3471 ft | 263 kts | 177° |
| 2026-04-26 11:49 | 25.23244 | 55.55291 | 3093 ft | 267 kts | 142° |
| 2026-04-26 11:49 | 25.22084 | 55.56872 | 2719 ft | 264 kts | 119° |
| 2026-04-26 11:49 | 25.21162 | 55.58622 | 2379 ft | 265 kts | 120° |
| 2026-04-26 11:50 | 25.20213 | 55.60366 | 2108 ft | 263 kts | 121° |
| 2026-04-26 11:50 | 25.19275 | 55.62062 | 2051 ft | 253 kts | 121° |
| 2026-04-26 11:50 | 25.18287 | 55.63618 | 2031 ft | 248 kts | 137° |
| 2026-04-26 11:50 | 25.16812 | 55.64553 | 2031 ft | 245 kts | 169° |
| 2026-04-26 11:51 | 25.15162 | 55.64528 | 2047 ft | 235 kts | 200° |
| 2026-04-26 11:51 | 25.13732 | 55.63708 | 2033 ft | 232 kts | 225° |
| 2026-04-26 11:51 | 25.12887 | 55.62257 | 2018 ft | 225 kts | 257° |
| 2026-04-26 11:51 | 25.12716 | 55.60574 | 2030 ft | 219 kts | 272° |
| 2026-04-26 11:52 | 25.13054 | 55.58966 | 2038 ft | 214 kts | 295° |
| 2026-04-26 11:52 | 25.13471 | 55.57980 | 2040 ft | 215 kts | 297° |
| 2026-04-26 11:52 | 25.14429 | 55.56056 | 2017 ft | 211 kts | 301° |
| 2026-04-26 11:52 | 25.15182 | 55.54683 | 2015 ft | 207 kts | 302° |
| 2026-04-26 11:53 | 25.15917 | 55.53360 | 2012 ft | 202 kts | 301° |
| 2026-04-26 11:53 | 25.16628 | 55.52080 | 2010 ft | 191 kts | 301° |
| 2026-04-26 11:53 | 25.17278 | 55.50907 | 2007 ft | 166 kts | 301° |
| 2026-04-26 11:54 | 25.18363 | 55.48946 | 2010 ft | 141 kts | 302° |
| 2026-04-26 11:54 | 25.18883 | 55.48008 | 1798 ft | 143 kts | 302° |
| 2026-04-26 11:54 | 25.19381 | 55.47108 | 1622 ft | 136 kts | 301° |
| 2026-04-26 11:54 | 25.19882 | 55.46203 | 1449 ft | 139 kts | 300° |
| 2026-04-26 11:55 | 25.20389 | 55.45285 | 1272 ft | 141 kts | 300° |
| 2026-04-26 11:55 | 25.20897 | 55.44366 | 1067 ft | 139 kts | 300° |
| 2026-04-26 11:55 | 25.21396 | 55.43467 | 884 ft | 137 kts | 301° |
| 2026-04-26 11:55 | 25.21893 | 55.42569 | 699 ft | 138 kts | 301° |
| 2026-04-26 11:56 | 25.22395 | 55.41665 | 527 ft | 137 kts | 300° |
| 2026-04-26 11:56 | 25.22880 | 55.40767 | 351 ft | 132 kts | 298° |
| 2026-04-26 11:56 | 25.23338 | 55.39934 | 116 ft | 123 kts | 302° |
| 2026-04-26 11:56 | 25.23761 | 55.39176 | 33 ft | 109 kts | 300° |
| 2026-04-26 11:57 | 25.24052 | 55.38654 | 29 ft | 64 kts | 301° |
| 2026-04-26 11:57 | 25.24232 | 55.38329 | 31 ft | 55 kts | 301° |
| 2026-04-26 11:57 | 25.24395 | 55.38035 | 30 ft | 40 kts | 301° |
| 2026-04-26 11:57 | 25.24533 | 55.37781 | 27 ft | 38 kts | 300° |
| 2026-04-26 11:58 | 25.24607 | 55.37527 | 27 ft | 32 kts | 276° |
| 2026-04-26 11:58 | 25.24613 | 55.37440 | 27 ft | 1 kts | 274° |
| 2026-04-26 11:58 | 25.24614 | 55.37434 | 27 ft | 1 kts | 274° |
| 2026-04-26 11:58 | 25.24614 | 55.37425 | 27 ft | 0 kts | 274° |
| 2026-04-26 11:59 | 25.24614 | 55.37422 | 27 ft | 1 kts | 274° |
| 2026-04-26 11:59 | 25.24615 | 55.37408 | 27 ft | 3 kts | 274° |
| 2026-04-26 11:59 | 25.24616 | 55.37377 | 27 ft | 5 kts | 271° |
| 2026-04-26 11:59 | 25.24617 | 55.37334 | 26 ft | 6 kts | 271° |
| 2026-04-26 12:00 | 25.24617 | 55.37283 | 26 ft | 7 kts | 271° |
| 2026-04-26 12:00 | 25.24601 | 55.37230 | 31 ft | 9 kts | 220° |
| 2026-04-26 12:00 | 25.24547 | 55.37192 | 31 ft | 10 kts | 212° |
| 2026-04-26 12:00 | 25.24486 | 55.37150 | 31 ft | 11 kts | 210° |